<?xml version="1.0" encoding="UTF-8" standalone="no" ?>
<gpx xmlns="http://www.topografix.com/GPX/1/1" xmlns:xsi="http://www.w3.org/2001/XMLSchema-instance" xsi:schemaLocation="http://www.topografix.com/GPX/1/1 http://www.topografix.com/GPX/1/1/gpx.xsd" version="1.1" creator="VisuGPX - https://www.visugpx.com">
  <metadata>
    <name>15007424-PAT Chamrousse G1</name>
  </metadata>
  <trk>
    <name><![CDATA[15007424-PAT Chamrousse G1]]></name>
    <trkseg>
      <trkpt lat="45.10442" lon="5.87744">
        <ele>1738</ele>
        <time>2022-06-22T16:48:33Z</time>
      </trkpt>
      <trkpt lat="45.10461" lon="5.87698">
        <ele>1735</ele>
        <time>2022-06-22T16:49:23Z</time>
      </trkpt>
      <trkpt lat="45.10484" lon="5.87649">
        <ele>1733</ele>
        <time>2022-06-22T16:50:19Z</time>
      </trkpt>
      <trkpt lat="45.10497" lon="5.87624">
        <ele>1733</ele>
        <time>2022-06-22T16:50:48Z</time>
      </trkpt>
      <trkpt lat="45.10414" lon="5.87486">
        <ele>1709</ele>
        <time>2022-06-22T16:53:39Z</time>
      </trkpt>
      <trkpt lat="45.10395" lon="5.87559">
        <ele>1712</ele>
        <time>2022-06-22T16:54:52Z</time>
      </trkpt>
      <trkpt lat="45.10368" lon="5.87612">
        <ele>1712</ele>
        <time>2022-06-22T16:55:53Z</time>
      </trkpt>
      <trkpt lat="45.1036" lon="5.87644">
        <ele>1712</ele>
        <time>2022-06-22T16:56:25Z</time>
      </trkpt>
      <trkpt lat="45.1036" lon="5.8769">
        <ele>1715</ele>
        <time>2022-06-22T16:57:09Z</time>
      </trkpt>
      <trkpt lat="45.10356" lon="5.87701">
        <ele>1715</ele>
        <time>2022-06-22T16:57:20Z</time>
      </trkpt>
      <trkpt lat="45.10351" lon="5.87706">
        <ele>1714</ele>
        <time>2022-06-22T16:57:29Z</time>
      </trkpt>
      <trkpt lat="45.10346" lon="5.87617">
        <ele>1708</ele>
        <time>2022-06-22T16:58:53Z</time>
      </trkpt>
      <trkpt lat="45.10346" lon="5.87609">
        <ele>1707</ele>
        <time>2022-06-22T16:59:00Z</time>
      </trkpt>
      <trkpt lat="45.10344" lon="5.87587">
        <ele>1706</ele>
        <time>2022-06-22T16:59:21Z</time>
      </trkpt>
      <trkpt lat="45.10339" lon="5.87505">
        <ele>1700</ele>
        <time>2022-06-22T17:00:39Z</time>
      </trkpt>
      <trkpt lat="45.10332" lon="5.87495">
        <ele>1698</ele>
        <time>2022-06-22T17:00:52Z</time>
      </trkpt>
      <trkpt lat="45.10349" lon="5.8747">
        <ele>1698</ele>
        <time>2022-06-22T17:01:25Z</time>
      </trkpt>
      <trkpt lat="45.10372" lon="5.87458">
        <ele>1700</ele>
        <time>2022-06-22T17:01:57Z</time>
      </trkpt>
      <trkpt lat="45.1037" lon="5.87449">
        <ele>1699</ele>
        <time>2022-06-22T17:02:06Z</time>
      </trkpt>
      <trkpt lat="45.10372" lon="5.87458">
        <ele>1700</ele>
        <time>2022-06-22T17:02:15Z</time>
      </trkpt>
      <trkpt lat="45.10349" lon="5.8747">
        <ele>1698</ele>
        <time>2022-06-22T17:02:48Z</time>
      </trkpt>
      <trkpt lat="45.10332" lon="5.87495">
        <ele>1698</ele>
        <time>2022-06-22T17:03:21Z</time>
      </trkpt>
      <trkpt lat="45.10319" lon="5.8749">
        <ele>1696</ele>
        <time>2022-06-22T17:03:38Z</time>
      </trkpt>
      <trkpt lat="45.1031" lon="5.8749">
        <ele>1695</ele>
        <time>2022-06-22T17:03:51Z</time>
      </trkpt>
      <trkpt lat="45.10274" lon="5.87516">
        <ele>1692</ele>
        <time>2022-06-22T17:04:44Z</time>
      </trkpt>
      <trkpt lat="45.10208" lon="5.87572">
        <ele>1690</ele>
        <time>2022-06-22T17:06:27Z</time>
      </trkpt>
      <trkpt lat="45.10186" lon="5.87608">
        <ele>1690</ele>
        <time>2022-06-22T17:07:12Z</time>
      </trkpt>
      <trkpt lat="45.10177" lon="5.87632">
        <ele>1689</ele>
        <time>2022-06-22T17:07:38Z</time>
      </trkpt>
      <trkpt lat="45.10154" lon="5.87729">
        <ele>1690</ele>
        <time>2022-06-22T17:09:14Z</time>
      </trkpt>
      <trkpt lat="45.10145" lon="5.87726">
        <ele>1688</ele>
        <time>2022-06-22T17:09:26Z</time>
      </trkpt>
      <trkpt lat="45.10134" lon="5.87735">
        <ele>1687</ele>
        <time>2022-06-22T17:09:43Z</time>
      </trkpt>
      <trkpt lat="45.10124" lon="5.8773">
        <ele>1685</ele>
        <time>2022-06-22T17:09:57Z</time>
      </trkpt>
      <trkpt lat="45.10118" lon="5.87715">
        <ele>1683</ele>
        <time>2022-06-22T17:10:14Z</time>
      </trkpt>
      <trkpt lat="45.10096" lon="5.87706">
        <ele>1679</ele>
        <time>2022-06-22T17:10:44Z</time>
      </trkpt>
      <trkpt lat="45.10059" lon="5.87686">
        <ele>1673</ele>
        <time>2022-06-22T17:11:37Z</time>
      </trkpt>
      <trkpt lat="45.10049" lon="5.87682">
        <ele>1671</ele>
        <time>2022-06-22T17:11:51Z</time>
      </trkpt>
      <trkpt lat="45.10045" lon="5.87683">
        <ele>1671</ele>
        <time>2022-06-22T17:11:56Z</time>
      </trkpt>
      <trkpt lat="45.1004" lon="5.8768">
        <ele>1670</ele>
        <time>2022-06-22T17:12:04Z</time>
      </trkpt>
      <trkpt lat="45.10028" lon="5.87686">
        <ele>1668</ele>
        <time>2022-06-22T17:12:21Z</time>
      </trkpt>
      <trkpt lat="45.10016" lon="5.87699">
        <ele>1665</ele>
        <time>2022-06-22T17:12:41Z</time>
      </trkpt>
      <trkpt lat="45.10005" lon="5.8781">
        <ele>1652</ele>
        <time>2022-06-22T17:14:26Z</time>
      </trkpt>
      <trkpt lat="45.1" lon="5.8783">
        <ele>1648</ele>
        <time>2022-06-22T17:14:46Z</time>
      </trkpt>
      <trkpt lat="45.09993" lon="5.87841">
        <ele>1646</ele>
        <time>2022-06-22T17:15:00Z</time>
      </trkpt>
      <trkpt lat="45.09985" lon="5.87838">
        <ele>1644</ele>
        <time>2022-06-22T17:15:11Z</time>
      </trkpt>
      <trkpt lat="45.09972" lon="5.87823">
        <ele>1642</ele>
        <time>2022-06-22T17:15:34Z</time>
      </trkpt>
      <trkpt lat="45.09967" lon="5.8781">
        <ele>1642</ele>
        <time>2022-06-22T17:15:48Z</time>
      </trkpt>
      <trkpt lat="45.09972" lon="5.87823">
        <ele>1642</ele>
        <time>2022-06-22T17:16:02Z</time>
      </trkpt>
      <trkpt lat="45.09985" lon="5.87878">
        <ele>1642</ele>
        <time>2022-06-22T17:16:56Z</time>
      </trkpt>
      <trkpt lat="45.10016" lon="5.87982">
        <ele>1646</ele>
        <time>2022-06-22T17:18:42Z</time>
      </trkpt>
      <trkpt lat="45.10029" lon="5.88015">
        <ele>1649</ele>
        <time>2022-06-22T17:19:18Z</time>
      </trkpt>
      <trkpt lat="45.10052" lon="5.88068">
        <ele>1655</ele>
        <time>2022-06-22T17:20:17Z</time>
      </trkpt>
      <trkpt lat="45.10064" lon="5.881">
        <ele>1658</ele>
        <time>2022-06-22T17:20:51Z</time>
      </trkpt>
      <trkpt lat="45.10073" lon="5.8814">
        <ele>1659</ele>
        <time>2022-06-22T17:21:30Z</time>
      </trkpt>
      <trkpt lat="45.10097" lon="5.88289">
        <ele>1656</ele>
        <time>2022-06-22T17:23:54Z</time>
      </trkpt>
      <trkpt lat="45.10105" lon="5.88317">
        <ele>1656</ele>
        <time>2022-06-22T17:24:23Z</time>
      </trkpt>
      <trkpt lat="45.10112" lon="5.88336">
        <ele>1657</ele>
        <time>2022-06-22T17:24:43Z</time>
      </trkpt>
      <trkpt lat="45.10125" lon="5.8844">
        <ele>1654</ele>
        <time>2022-06-22T17:26:22Z</time>
      </trkpt>
      <trkpt lat="45.10129" lon="5.88492">
        <ele>1653</ele>
        <time>2022-06-22T17:27:12Z</time>
      </trkpt>
      <trkpt lat="45.10128" lon="5.88518">
        <ele>1652</ele>
        <time>2022-06-22T17:27:36Z</time>
      </trkpt>
      <trkpt lat="45.10129" lon="5.88492">
        <ele>1653</ele>
        <time>2022-06-22T17:28:01Z</time>
      </trkpt>
      <trkpt lat="45.10125" lon="5.8844">
        <ele>1654</ele>
        <time>2022-06-22T17:28:50Z</time>
      </trkpt>
      <trkpt lat="45.10134" lon="5.88474">
        <ele>1654</ele>
        <time>2022-06-22T17:29:24Z</time>
      </trkpt>
      <trkpt lat="45.10142" lon="5.88514">
        <ele>1654</ele>
        <time>2022-06-22T17:30:03Z</time>
      </trkpt>
      <trkpt lat="45.10168" lon="5.88596">
        <ele>1659</ele>
        <time>2022-06-22T17:31:28Z</time>
      </trkpt>
      <trkpt lat="45.10148" lon="5.88635">
        <ele>1655</ele>
        <time>2022-06-22T17:32:13Z</time>
      </trkpt>
      <trkpt lat="45.10139" lon="5.88664">
        <ele>1653</ele>
        <time>2022-06-22T17:32:43Z</time>
      </trkpt>
      <trkpt lat="45.10145" lon="5.88712">
        <ele>1654</ele>
        <time>2022-06-22T17:33:29Z</time>
      </trkpt>
      <trkpt lat="45.10144" lon="5.88741">
        <ele>1654</ele>
        <time>2022-06-22T17:33:57Z</time>
      </trkpt>
      <trkpt lat="45.10153" lon="5.88767">
        <ele>1654</ele>
        <time>2022-06-22T17:34:24Z</time>
      </trkpt>
      <trkpt lat="45.10168" lon="5.88769">
        <ele>1655</ele>
        <time>2022-06-22T17:34:44Z</time>
      </trkpt>
      <trkpt lat="45.10186" lon="5.88781">
        <ele>1658</ele>
        <time>2022-06-22T17:35:11Z</time>
      </trkpt>
      <trkpt lat="45.10193" lon="5.88796">
        <ele>1658</ele>
        <time>2022-06-22T17:35:27Z</time>
      </trkpt>
      <trkpt lat="45.10209" lon="5.88798">
        <ele>1660</ele>
        <time>2022-06-22T17:35:49Z</time>
      </trkpt>
      <trkpt lat="45.1024" lon="5.88781">
        <ele>1666</ele>
        <time>2022-06-22T17:36:33Z</time>
      </trkpt>
      <trkpt lat="45.10247" lon="5.88808">
        <ele>1665</ele>
        <time>2022-06-22T17:37:00Z</time>
      </trkpt>
      <trkpt lat="45.10252" lon="5.88839">
        <ele>1665</ele>
        <time>2022-06-22T17:37:30Z</time>
      </trkpt>
      <trkpt lat="45.10281" lon="5.88902">
        <ele>1670</ele>
        <time>2022-06-22T17:38:41Z</time>
      </trkpt>
      <trkpt lat="45.10293" lon="5.88965">
        <ele>1675</ele>
        <time>2022-06-22T17:39:43Z</time>
      </trkpt>
      <trkpt lat="45.10291" lon="5.89025">
        <ele>1682</ele>
        <time>2022-06-22T17:40:39Z</time>
      </trkpt>
      <trkpt lat="45.10287" lon="5.89078">
        <ele>1691</ele>
        <time>2022-06-22T17:41:29Z</time>
      </trkpt>
      <trkpt lat="45.10289" lon="5.891">
        <ele>1693</ele>
        <time>2022-06-22T17:41:50Z</time>
      </trkpt>
      <trkpt lat="45.10293" lon="5.89124">
        <ele>1696</ele>
        <time>2022-06-22T17:42:14Z</time>
      </trkpt>
      <trkpt lat="45.10299" lon="5.89137">
        <ele>1698</ele>
        <time>2022-06-22T17:42:28Z</time>
      </trkpt>
      <trkpt lat="45.10307" lon="5.8916">
        <ele>1700</ele>
        <time>2022-06-22T17:42:52Z</time>
      </trkpt>
      <trkpt lat="45.1031" lon="5.89188">
        <ele>1702</ele>
        <time>2022-06-22T17:43:19Z</time>
      </trkpt>
      <trkpt lat="45.10313" lon="5.89201">
        <ele>1702</ele>
        <time>2022-06-22T17:43:32Z</time>
      </trkpt>
      <trkpt lat="45.10309" lon="5.89195">
        <ele>1702</ele>
        <time>2022-06-22T17:43:40Z</time>
      </trkpt>
      <trkpt lat="45.10313" lon="5.89201">
        <ele>1702</ele>
        <time>2022-06-22T17:43:47Z</time>
      </trkpt>
      <trkpt lat="45.1033" lon="5.89218">
        <ele>1702</ele>
        <time>2022-06-22T17:44:15Z</time>
      </trkpt>
      <trkpt lat="45.10335" lon="5.89226">
        <ele>1702</ele>
        <time>2022-06-22T17:44:25Z</time>
      </trkpt>
      <trkpt lat="45.10342" lon="5.89232">
        <ele>1703</ele>
        <time>2022-06-22T17:44:36Z</time>
      </trkpt>
      <trkpt lat="45.10355" lon="5.89234">
        <ele>1705</ele>
        <time>2022-06-22T17:44:54Z</time>
      </trkpt>
      <trkpt lat="45.10388" lon="5.89248">
        <ele>1709</ele>
        <time>2022-06-22T17:45:40Z</time>
      </trkpt>
      <trkpt lat="45.10396" lon="5.89248">
        <ele>1710</ele>
        <time>2022-06-22T17:45:50Z</time>
      </trkpt>
      <trkpt lat="45.10412" lon="5.89243">
        <ele>1711</ele>
        <time>2022-06-22T17:46:12Z</time>
      </trkpt>
      <trkpt lat="45.10421" lon="5.89244">
        <ele>1712</ele>
        <time>2022-06-22T17:46:24Z</time>
      </trkpt>
      <trkpt lat="45.10433" lon="5.89249">
        <ele>1714</ele>
        <time>2022-06-22T17:46:41Z</time>
      </trkpt>
      <trkpt lat="45.10439" lon="5.89253">
        <ele>1715</ele>
        <time>2022-06-22T17:46:50Z</time>
      </trkpt>
      <trkpt lat="45.10482" lon="5.89305">
        <ele>1722</ele>
        <time>2022-06-22T17:48:05Z</time>
      </trkpt>
      <trkpt lat="45.10504" lon="5.89328">
        <ele>1723</ele>
        <time>2022-06-22T17:48:42Z</time>
      </trkpt>
      <trkpt lat="45.10511" lon="5.8933">
        <ele>1724</ele>
        <time>2022-06-22T17:48:51Z</time>
      </trkpt>
      <trkpt lat="45.10518" lon="5.89337">
        <ele>1726</ele>
        <time>2022-06-22T17:49:03Z</time>
      </trkpt>
      <trkpt lat="45.10529" lon="5.89358">
        <ele>1730</ele>
        <time>2022-06-22T17:49:27Z</time>
      </trkpt>
      <trkpt lat="45.10533" lon="5.89375">
        <ele>1733</ele>
        <time>2022-06-22T17:49:44Z</time>
      </trkpt>
      <trkpt lat="45.10537" lon="5.89377">
        <ele>1733</ele>
        <time>2022-06-22T17:49:50Z</time>
      </trkpt>
      <trkpt lat="45.10539" lon="5.89384">
        <ele>1735</ele>
        <time>2022-06-22T17:49:57Z</time>
      </trkpt>
      <trkpt lat="45.10543" lon="5.89389">
        <ele>1736</ele>
        <time>2022-06-22T17:50:04Z</time>
      </trkpt>
      <trkpt lat="45.10553" lon="5.89394">
        <ele>1737</ele>
        <time>2022-06-22T17:50:18Z</time>
      </trkpt>
      <trkpt lat="45.10557" lon="5.89419">
        <ele>1741</ele>
        <time>2022-06-22T17:50:42Z</time>
      </trkpt>
      <trkpt lat="45.10564" lon="5.89429">
        <ele>1743</ele>
        <time>2022-06-22T17:50:56Z</time>
      </trkpt>
      <trkpt lat="45.10572" lon="5.89447">
        <ele>1746</ele>
        <time>2022-06-22T17:51:16Z</time>
      </trkpt>
      <trkpt lat="45.10582" lon="5.89453">
        <ele>1747</ele>
        <time>2022-06-22T17:51:30Z</time>
      </trkpt>
      <trkpt lat="45.10589" lon="5.89464">
        <ele>1750</ele>
        <time>2022-06-22T17:51:44Z</time>
      </trkpt>
      <trkpt lat="45.10591" lon="5.89474">
        <ele>1752</ele>
        <time>2022-06-22T17:51:54Z</time>
      </trkpt>
      <trkpt lat="45.10598" lon="5.89479">
        <ele>1754</ele>
        <time>2022-06-22T17:52:04Z</time>
      </trkpt>
      <trkpt lat="45.10604" lon="5.8948">
        <ele>1755</ele>
        <time>2022-06-22T17:52:12Z</time>
      </trkpt>
      <trkpt lat="45.10605" lon="5.89486">
        <ele>1756</ele>
        <time>2022-06-22T17:52:18Z</time>
      </trkpt>
      <trkpt lat="45.10603" lon="5.89493">
        <ele>1757</ele>
        <time>2022-06-22T17:52:25Z</time>
      </trkpt>
      <trkpt lat="45.1061" lon="5.895">
        <ele>1759</ele>
        <time>2022-06-22T17:52:37Z</time>
      </trkpt>
      <trkpt lat="45.10623" lon="5.89502">
        <ele>1762</ele>
        <time>2022-06-22T17:52:54Z</time>
      </trkpt>
      <trkpt lat="45.10637" lon="5.89508">
        <ele>1766</ele>
        <time>2022-06-22T17:53:14Z</time>
      </trkpt>
      <trkpt lat="45.10646" lon="5.8952">
        <ele>1771</ele>
        <time>2022-06-22T17:53:30Z</time>
      </trkpt>
      <trkpt lat="45.10658" lon="5.89542">
        <ele>1779</ele>
        <time>2022-06-22T17:53:56Z</time>
      </trkpt>
      <trkpt lat="45.10675" lon="5.89555">
        <ele>1786</ele>
        <time>2022-06-22T17:54:22Z</time>
      </trkpt>
      <trkpt lat="45.10686" lon="5.89567">
        <ele>1791</ele>
        <time>2022-06-22T17:54:41Z</time>
      </trkpt>
      <trkpt lat="45.10695" lon="5.89575">
        <ele>1795</ele>
        <time>2022-06-22T17:54:55Z</time>
      </trkpt>
      <trkpt lat="45.1073" lon="5.89594">
        <ele>1806</ele>
        <time>2022-06-22T17:55:45Z</time>
      </trkpt>
      <trkpt lat="45.10791" lon="5.89649">
        <ele>1828</ele>
        <time>2022-06-22T17:57:21Z</time>
      </trkpt>
      <trkpt lat="45.10812" lon="5.89651">
        <ele>1832</ele>
        <time>2022-06-22T17:57:49Z</time>
      </trkpt>
      <trkpt lat="45.10819" lon="5.89656">
        <ele>1834</ele>
        <time>2022-06-22T17:58:00Z</time>
      </trkpt>
      <trkpt lat="45.10826" lon="5.89665">
        <ele>1836</ele>
        <time>2022-06-22T17:58:12Z</time>
      </trkpt>
      <trkpt lat="45.10838" lon="5.89675">
        <ele>1840</ele>
        <time>2022-06-22T17:58:31Z</time>
      </trkpt>
      <trkpt lat="45.10844" lon="5.89685">
        <ele>1843</ele>
        <time>2022-06-22T17:58:43Z</time>
      </trkpt>
      <trkpt lat="45.10847" lon="5.89698">
        <ele>1846</ele>
        <time>2022-06-22T17:58:56Z</time>
      </trkpt>
      <trkpt lat="45.1085" lon="5.89706">
        <ele>1848</ele>
        <time>2022-06-22T17:59:05Z</time>
      </trkpt>
      <trkpt lat="45.10854" lon="5.89715">
        <ele>1851</ele>
        <time>2022-06-22T17:59:15Z</time>
      </trkpt>
      <trkpt lat="45.10854" lon="5.8973">
        <ele>1853</ele>
        <time>2022-06-22T17:59:29Z</time>
      </trkpt>
      <trkpt lat="45.1085" lon="5.89745">
        <ele>1855</ele>
        <time>2022-06-22T17:59:44Z</time>
      </trkpt>
      <trkpt lat="45.1085" lon="5.89754">
        <ele>1857</ele>
        <time>2022-06-22T17:59:53Z</time>
      </trkpt>
      <trkpt lat="45.10855" lon="5.89774">
        <ele>1861</ele>
        <time>2022-06-22T18:00:13Z</time>
      </trkpt>
      <trkpt lat="45.10862" lon="5.89787">
        <ele>1863</ele>
        <time>2022-06-22T18:00:28Z</time>
      </trkpt>
      <trkpt lat="45.10894" lon="5.89833">
        <ele>1870</ele>
        <time>2022-06-22T18:01:29Z</time>
      </trkpt>
      <trkpt lat="45.10901" lon="5.89848">
        <ele>1871</ele>
        <time>2022-06-22T18:01:46Z</time>
      </trkpt>
      <trkpt lat="45.10902" lon="5.89866">
        <ele>1871</ele>
        <time>2022-06-22T18:02:03Z</time>
      </trkpt>
      <trkpt lat="45.10899" lon="5.89873">
        <ele>1871</ele>
        <time>2022-06-22T18:02:10Z</time>
      </trkpt>
      <trkpt lat="45.10902" lon="5.89887">
        <ele>1872</ele>
        <time>2022-06-22T18:02:24Z</time>
      </trkpt>
      <trkpt lat="45.10905" lon="5.8989">
        <ele>1872</ele>
        <time>2022-06-22T18:02:29Z</time>
      </trkpt>
      <trkpt lat="45.10909" lon="5.89889">
        <ele>1872</ele>
        <time>2022-06-22T18:02:35Z</time>
      </trkpt>
      <trkpt lat="45.10913" lon="5.89891">
        <ele>1871</ele>
        <time>2022-06-22T18:02:40Z</time>
      </trkpt>
      <trkpt lat="45.10916" lon="5.89895">
        <ele>1871</ele>
        <time>2022-06-22T18:02:46Z</time>
      </trkpt>
      <trkpt lat="45.10916" lon="5.899">
        <ele>1872</ele>
        <time>2022-06-22T18:02:50Z</time>
      </trkpt>
      <trkpt lat="45.10924" lon="5.89918">
        <ele>1873</ele>
        <time>2022-06-22T18:03:10Z</time>
      </trkpt>
      <trkpt lat="45.10924" lon="5.89925">
        <ele>1874</ele>
        <time>2022-06-22T18:03:17Z</time>
      </trkpt>
      <trkpt lat="45.10926" lon="5.89931">
        <ele>1874</ele>
        <time>2022-06-22T18:03:23Z</time>
      </trkpt>
      <trkpt lat="45.10929" lon="5.89934">
        <ele>1875</ele>
        <time>2022-06-22T18:03:28Z</time>
      </trkpt>
      <trkpt lat="45.10931" lon="5.89945">
        <ele>1876</ele>
        <time>2022-06-22T18:03:39Z</time>
      </trkpt>
      <trkpt lat="45.10936" lon="5.89956">
        <ele>1878</ele>
        <time>2022-06-22T18:03:51Z</time>
      </trkpt>
      <trkpt lat="45.1094" lon="5.89972">
        <ele>1880</ele>
        <time>2022-06-22T18:04:07Z</time>
      </trkpt>
      <trkpt lat="45.10949" lon="5.89983">
        <ele>1881</ele>
        <time>2022-06-22T18:04:23Z</time>
      </trkpt>
      <trkpt lat="45.10958" lon="5.89986">
        <ele>1881</ele>
        <time>2022-06-22T18:04:35Z</time>
      </trkpt>
      <trkpt lat="45.10961" lon="5.89984">
        <ele>1880</ele>
        <time>2022-06-22T18:04:40Z</time>
      </trkpt>
      <trkpt lat="45.10994" lon="5.90008">
        <ele>1880</ele>
        <time>2022-06-22T18:05:29Z</time>
      </trkpt>
      <trkpt lat="45.11009" lon="5.90042">
        <ele>1882</ele>
        <time>2022-06-22T18:06:07Z</time>
      </trkpt>
      <trkpt lat="45.11022" lon="5.90056">
        <ele>1885</ele>
        <time>2022-06-22T18:06:29Z</time>
      </trkpt>
      <trkpt lat="45.11029" lon="5.90058">
        <ele>1886</ele>
        <time>2022-06-22T18:06:38Z</time>
      </trkpt>
      <trkpt lat="45.11041" lon="5.90067">
        <ele>1889</ele>
        <time>2022-06-22T18:06:57Z</time>
      </trkpt>
      <trkpt lat="45.1105" lon="5.90068">
        <ele>1891</ele>
        <time>2022-06-22T18:07:09Z</time>
      </trkpt>
      <trkpt lat="45.11055" lon="5.90078">
        <ele>1892</ele>
        <time>2022-06-22T18:07:20Z</time>
      </trkpt>
      <trkpt lat="45.11057" lon="5.90105">
        <ele>1894</ele>
        <time>2022-06-22T18:07:46Z</time>
      </trkpt>
      <trkpt lat="45.1106" lon="5.9011">
        <ele>1895</ele>
        <time>2022-06-22T18:07:52Z</time>
      </trkpt>
      <trkpt lat="45.11067" lon="5.90112">
        <ele>1897</ele>
        <time>2022-06-22T18:08:01Z</time>
      </trkpt>
      <trkpt lat="45.1107" lon="5.90118">
        <ele>1898</ele>
        <time>2022-06-22T18:08:08Z</time>
      </trkpt>
      <trkpt lat="45.11078" lon="5.90117">
        <ele>1900</ele>
        <time>2022-06-22T18:08:19Z</time>
      </trkpt>
      <trkpt lat="45.11083" lon="5.90113">
        <ele>1901</ele>
        <time>2022-06-22T18:08:27Z</time>
      </trkpt>
      <trkpt lat="45.11087" lon="5.90115">
        <ele>1902</ele>
        <time>2022-06-22T18:08:32Z</time>
      </trkpt>
      <trkpt lat="45.11092" lon="5.90121">
        <ele>1903</ele>
        <time>2022-06-22T18:08:41Z</time>
      </trkpt>
      <trkpt lat="45.11099" lon="5.90116">
        <ele>1905</ele>
        <time>2022-06-22T18:08:52Z</time>
      </trkpt>
      <trkpt lat="45.11101" lon="5.90118">
        <ele>1905</ele>
        <time>2022-06-22T18:08:55Z</time>
      </trkpt>
      <trkpt lat="45.11103" lon="5.90127">
        <ele>1906</ele>
        <time>2022-06-22T18:09:04Z</time>
      </trkpt>
      <trkpt lat="45.11108" lon="5.90132">
        <ele>1908</ele>
        <time>2022-06-22T18:09:12Z</time>
      </trkpt>
      <trkpt lat="45.11114" lon="5.90131">
        <ele>1909</ele>
        <time>2022-06-22T18:09:20Z</time>
      </trkpt>
      <trkpt lat="45.11131" lon="5.90142">
        <ele>1913</ele>
        <time>2022-06-22T18:09:45Z</time>
      </trkpt>
      <trkpt lat="45.11138" lon="5.9014">
        <ele>1914</ele>
        <time>2022-06-22T18:09:54Z</time>
      </trkpt>
      <trkpt lat="45.11151" lon="5.90143">
        <ele>1917</ele>
        <time>2022-06-22T18:10:12Z</time>
      </trkpt>
      <trkpt lat="45.11181" lon="5.90154">
        <ele>1920</ele>
        <time>2022-06-22T18:10:53Z</time>
      </trkpt>
      <trkpt lat="45.11203" lon="5.90178">
        <ele>1921</ele>
        <time>2022-06-22T18:11:30Z</time>
      </trkpt>
      <trkpt lat="45.11219" lon="5.90189">
        <ele>1921</ele>
        <time>2022-06-22T18:11:54Z</time>
      </trkpt>
      <trkpt lat="45.11224" lon="5.90188">
        <ele>1920</ele>
        <time>2022-06-22T18:12:01Z</time>
      </trkpt>
      <trkpt lat="45.11241" lon="5.90174">
        <ele>1918</ele>
        <time>2022-06-22T18:12:27Z</time>
      </trkpt>
      <trkpt lat="45.11254" lon="5.90166">
        <ele>1916</ele>
        <time>2022-06-22T18:12:46Z</time>
      </trkpt>
      <trkpt lat="45.11263" lon="5.90167">
        <ele>1916</ele>
        <time>2022-06-22T18:12:58Z</time>
      </trkpt>
      <trkpt lat="45.11287" lon="5.90166">
        <ele>1916</ele>
        <time>2022-06-22T18:13:30Z</time>
      </trkpt>
      <trkpt lat="45.11283" lon="5.90181">
        <ele>1917</ele>
        <time>2022-06-22T18:13:45Z</time>
      </trkpt>
      <trkpt lat="45.11285" lon="5.90195">
        <ele>1919</ele>
        <time>2022-06-22T18:13:59Z</time>
      </trkpt>
      <trkpt lat="45.11298" lon="5.90212">
        <ele>1921</ele>
        <time>2022-06-22T18:14:22Z</time>
      </trkpt>
      <trkpt lat="45.11303" lon="5.90229">
        <ele>1923</ele>
        <time>2022-06-22T18:14:40Z</time>
      </trkpt>
      <trkpt lat="45.11307" lon="5.90236">
        <ele>1924</ele>
        <time>2022-06-22T18:14:48Z</time>
      </trkpt>
      <trkpt lat="45.11333" lon="5.90251">
        <ele>1925</ele>
        <time>2022-06-22T18:15:26Z</time>
      </trkpt>
      <trkpt lat="45.11339" lon="5.90252">
        <ele>1926</ele>
        <time>2022-06-22T18:15:34Z</time>
      </trkpt>
      <trkpt lat="45.11344" lon="5.90255">
        <ele>1926</ele>
        <time>2022-06-22T18:15:41Z</time>
      </trkpt>
      <trkpt lat="45.11347" lon="5.90262">
        <ele>1928</ele>
        <time>2022-06-22T18:15:49Z</time>
      </trkpt>
      <trkpt lat="45.11353" lon="5.90267">
        <ele>1929</ele>
        <time>2022-06-22T18:15:58Z</time>
      </trkpt>
      <trkpt lat="45.11356" lon="5.90267">
        <ele>1929</ele>
        <time>2022-06-22T18:16:02Z</time>
      </trkpt>
      <trkpt lat="45.1136" lon="5.90273">
        <ele>1931</ele>
        <time>2022-06-22T18:16:10Z</time>
      </trkpt>
      <trkpt lat="45.11375" lon="5.90284">
        <ele>1934</ele>
        <time>2022-06-22T18:16:32Z</time>
      </trkpt>
      <trkpt lat="45.1138" lon="5.90292">
        <ele>1935</ele>
        <time>2022-06-22T18:16:42Z</time>
      </trkpt>
      <trkpt lat="45.1139" lon="5.90298">
        <ele>1937</ele>
        <time>2022-06-22T18:16:57Z</time>
      </trkpt>
      <trkpt lat="45.1143" lon="5.90337">
        <ele>1946</ele>
        <time>2022-06-22T18:18:02Z</time>
      </trkpt>
      <trkpt lat="45.11435" lon="5.90358">
        <ele>1949</ele>
        <time>2022-06-22T18:18:22Z</time>
      </trkpt>
      <trkpt lat="45.11434" lon="5.90367">
        <ele>1950</ele>
        <time>2022-06-22T18:18:31Z</time>
      </trkpt>
      <trkpt lat="45.11436" lon="5.90371">
        <ele>1951</ele>
        <time>2022-06-22T18:18:36Z</time>
      </trkpt>
      <trkpt lat="45.11448" lon="5.90372">
        <ele>1951</ele>
        <time>2022-06-22T18:18:52Z</time>
      </trkpt>
      <trkpt lat="45.1145" lon="5.9037">
        <ele>1951</ele>
        <time>2022-06-22T18:18:55Z</time>
      </trkpt>
      <trkpt lat="45.11454" lon="5.90375">
        <ele>1951</ele>
        <time>2022-06-22T18:19:02Z</time>
      </trkpt>
      <trkpt lat="45.11464" lon="5.90383">
        <ele>1953</ele>
        <time>2022-06-22T18:19:17Z</time>
      </trkpt>
      <trkpt lat="45.11472" lon="5.90385">
        <ele>1953</ele>
        <time>2022-06-22T18:19:28Z</time>
      </trkpt>
      <trkpt lat="45.11477" lon="5.90389">
        <ele>1954</ele>
        <time>2022-06-22T18:19:36Z</time>
      </trkpt>
      <trkpt lat="45.11485" lon="5.90388">
        <ele>1954</ele>
        <time>2022-06-22T18:19:47Z</time>
      </trkpt>
      <trkpt lat="45.11489" lon="5.90392">
        <ele>1954</ele>
        <time>2022-06-22T18:19:53Z</time>
      </trkpt>
      <trkpt lat="45.1149" lon="5.90401">
        <ele>1956</ele>
        <time>2022-06-22T18:20:02Z</time>
      </trkpt>
      <trkpt lat="45.11495" lon="5.90407">
        <ele>1957</ele>
        <time>2022-06-22T18:20:10Z</time>
      </trkpt>
      <trkpt lat="45.11502" lon="5.90425">
        <ele>1961</ele>
        <time>2022-06-22T18:20:30Z</time>
      </trkpt>
      <trkpt lat="45.11514" lon="5.90433">
        <ele>1964</ele>
        <time>2022-06-22T18:20:47Z</time>
      </trkpt>
      <trkpt lat="45.11526" lon="5.90447">
        <ele>1968</ele>
        <time>2022-06-22T18:21:08Z</time>
      </trkpt>
      <trkpt lat="45.11557" lon="5.90454">
        <ele>1973</ele>
        <time>2022-06-22T18:21:50Z</time>
      </trkpt>
      <trkpt lat="45.11574" lon="5.90454">
        <ele>1974</ele>
        <time>2022-06-22T18:22:13Z</time>
      </trkpt>
      <trkpt lat="45.11583" lon="5.90458">
        <ele>1976</ele>
        <time>2022-06-22T18:22:25Z</time>
      </trkpt>
      <trkpt lat="45.11593" lon="5.90455">
        <ele>1976</ele>
        <time>2022-06-22T18:22:39Z</time>
      </trkpt>
      <trkpt lat="45.11598" lon="5.9046">
        <ele>1978</ele>
        <time>2022-06-22T18:22:47Z</time>
      </trkpt>
      <trkpt lat="45.11603" lon="5.90459">
        <ele>1978</ele>
        <time>2022-06-22T18:22:54Z</time>
      </trkpt>
      <trkpt lat="45.11629" lon="5.90468">
        <ele>1982</ele>
        <time>2022-06-22T18:23:30Z</time>
      </trkpt>
      <trkpt lat="45.11634" lon="5.90475">
        <ele>1985</ele>
        <time>2022-06-22T18:23:39Z</time>
      </trkpt>
      <trkpt lat="45.11658" lon="5.90486">
        <ele>1991</ele>
        <time>2022-06-22T18:24:13Z</time>
      </trkpt>
      <trkpt lat="45.11674" lon="5.90486">
        <ele>1992</ele>
        <time>2022-06-22T18:24:34Z</time>
      </trkpt>
      <trkpt lat="45.11689" lon="5.90492">
        <ele>1996</ele>
        <time>2022-06-22T18:24:55Z</time>
      </trkpt>
      <trkpt lat="45.11731" lon="5.90534">
        <ele>2015</ele>
        <time>2022-06-22T18:26:03Z</time>
      </trkpt>
      <trkpt lat="45.11748" lon="5.90553">
        <ele>2022</ele>
        <time>2022-06-22T18:26:32Z</time>
      </trkpt>
      <trkpt lat="45.11771" lon="5.90567">
        <ele>2031</ele>
        <time>2022-06-22T18:27:06Z</time>
      </trkpt>
      <trkpt lat="45.1179" lon="5.90589">
        <ele>2037</ele>
        <time>2022-06-22T18:27:38Z</time>
      </trkpt>
      <trkpt lat="45.11801" lon="5.90612">
        <ele>2033</ele>
        <time>2022-06-22T18:28:05Z</time>
      </trkpt>
      <trkpt lat="45.11816" lon="5.90629">
        <ele>2031</ele>
        <time>2022-06-22T18:28:30Z</time>
      </trkpt>
      <trkpt lat="45.11822" lon="5.90641">
        <ele>2028</ele>
        <time>2022-06-22T18:28:44Z</time>
      </trkpt>
      <trkpt lat="45.11838" lon="5.90648">
        <ele>2029</ele>
        <time>2022-06-22T18:29:06Z</time>
      </trkpt>
      <trkpt lat="45.11854" lon="5.90656">
        <ele>2031</ele>
        <time>2022-06-22T18:29:29Z</time>
      </trkpt>
      <trkpt lat="45.11865" lon="5.90666">
        <ele>2032</ele>
        <time>2022-06-22T18:29:47Z</time>
      </trkpt>
      <trkpt lat="45.11867" lon="5.90669">
        <ele>2031</ele>
        <time>2022-06-22T18:29:50Z</time>
      </trkpt>
      <trkpt lat="45.11866" lon="5.90687">
        <ele>2027</ele>
        <time>2022-06-22T18:30:07Z</time>
      </trkpt>
      <trkpt lat="45.11869" lon="5.90692">
        <ele>2027</ele>
        <time>2022-06-22T18:30:14Z</time>
      </trkpt>
      <trkpt lat="45.11879" lon="5.90703">
        <ele>2028</ele>
        <time>2022-06-22T18:30:30Z</time>
      </trkpt>
      <trkpt lat="45.1189" lon="5.90709">
        <ele>2030</ele>
        <time>2022-06-22T18:30:46Z</time>
      </trkpt>
      <trkpt lat="45.11893" lon="5.90715">
        <ele>2030</ele>
        <time>2022-06-22T18:30:53Z</time>
      </trkpt>
      <trkpt lat="45.11905" lon="5.90721">
        <ele>2034</ele>
        <time>2022-06-22T18:31:10Z</time>
      </trkpt>
      <trkpt lat="45.11911" lon="5.90728">
        <ele>2035</ele>
        <time>2022-06-22T18:31:20Z</time>
      </trkpt>
      <trkpt lat="45.11917" lon="5.90732">
        <ele>2036</ele>
        <time>2022-06-22T18:31:29Z</time>
      </trkpt>
      <trkpt lat="45.11922" lon="5.90738">
        <ele>2038</ele>
        <time>2022-06-22T18:31:38Z</time>
      </trkpt>
      <trkpt lat="45.11922" lon="5.90744">
        <ele>2037</ele>
        <time>2022-06-22T18:31:44Z</time>
      </trkpt>
      <trkpt lat="45.11928" lon="5.90746">
        <ele>2039</ele>
        <time>2022-06-22T18:31:52Z</time>
      </trkpt>
      <trkpt lat="45.1193" lon="5.90752">
        <ele>2039</ele>
        <time>2022-06-22T18:31:58Z</time>
      </trkpt>
      <trkpt lat="45.11938" lon="5.90756">
        <ele>2042</ele>
        <time>2022-06-22T18:32:10Z</time>
      </trkpt>
      <trkpt lat="45.1194" lon="5.90759">
        <ele>2042</ele>
        <time>2022-06-22T18:32:13Z</time>
      </trkpt>
      <trkpt lat="45.11947" lon="5.90762">
        <ele>2044</ele>
        <time>2022-06-22T18:32:23Z</time>
      </trkpt>
      <trkpt lat="45.11949" lon="5.90766">
        <ele>2044</ele>
        <time>2022-06-22T18:32:28Z</time>
      </trkpt>
      <trkpt lat="45.11962" lon="5.9079">
        <ele>2046</ele>
        <time>2022-06-22T18:32:56Z</time>
      </trkpt>
      <trkpt lat="45.11966" lon="5.90816">
        <ele>2045</ele>
        <time>2022-06-22T18:33:21Z</time>
      </trkpt>
      <trkpt lat="45.11967" lon="5.9082">
        <ele>2044</ele>
        <time>2022-06-22T18:33:25Z</time>
      </trkpt>
      <trkpt lat="45.11976" lon="5.90833">
        <ele>2047</ele>
        <time>2022-06-22T18:33:42Z</time>
      </trkpt>
      <trkpt lat="45.11983" lon="5.90839">
        <ele>2050</ele>
        <time>2022-06-22T18:33:53Z</time>
      </trkpt>
      <trkpt lat="45.11989" lon="5.90848">
        <ele>2052</ele>
        <time>2022-06-22T18:34:05Z</time>
      </trkpt>
      <trkpt lat="45.11992" lon="5.90849">
        <ele>2053</ele>
        <time>2022-06-22T18:34:09Z</time>
      </trkpt>
      <trkpt lat="45.11995" lon="5.90844">
        <ele>2056</ele>
        <time>2022-06-22T18:34:15Z</time>
      </trkpt>
      <trkpt lat="45.11997" lon="5.90845">
        <ele>2056</ele>
        <time>2022-06-22T18:34:18Z</time>
      </trkpt>
      <trkpt lat="45.12009" lon="5.90842">
        <ele>2060</ele>
        <time>2022-06-22T18:34:34Z</time>
      </trkpt>
      <trkpt lat="45.12019" lon="5.90836">
        <ele>2063</ele>
        <time>2022-06-22T18:34:49Z</time>
      </trkpt>
      <trkpt lat="45.12029" lon="5.90855">
        <ele>2062</ele>
        <time>2022-06-22T18:35:11Z</time>
      </trkpt>
      <trkpt lat="45.12059" lon="5.90861">
        <ele>2067</ele>
        <time>2022-06-22T18:35:52Z</time>
      </trkpt>
      <trkpt lat="45.12069" lon="5.9087">
        <ele>2067</ele>
        <time>2022-06-22T18:36:07Z</time>
      </trkpt>
      <trkpt lat="45.12077" lon="5.90873">
        <ele>2068</ele>
        <time>2022-06-22T18:36:19Z</time>
      </trkpt>
      <trkpt lat="45.12082" lon="5.90883">
        <ele>2067</ele>
        <time>2022-06-22T18:36:30Z</time>
      </trkpt>
      <trkpt lat="45.12086" lon="5.90896">
        <ele>2065</ele>
        <time>2022-06-22T18:36:43Z</time>
      </trkpt>
      <trkpt lat="45.12093" lon="5.90908">
        <ele>2063</ele>
        <time>2022-06-22T18:36:58Z</time>
      </trkpt>
      <trkpt lat="45.12104" lon="5.90918">
        <ele>2062</ele>
        <time>2022-06-22T18:37:16Z</time>
      </trkpt>
      <trkpt lat="45.1212" lon="5.90942">
        <ele>2062</ele>
        <time>2022-06-22T18:37:47Z</time>
      </trkpt>
      <trkpt lat="45.1213" lon="5.90938">
        <ele>2063</ele>
        <time>2022-06-22T18:38:00Z</time>
      </trkpt>
      <trkpt lat="45.12137" lon="5.90941">
        <ele>2063</ele>
        <time>2022-06-22T18:38:10Z</time>
      </trkpt>
      <trkpt lat="45.12142" lon="5.90955">
        <ele>2063</ele>
        <time>2022-06-22T18:38:25Z</time>
      </trkpt>
      <trkpt lat="45.12153" lon="5.90959">
        <ele>2064</ele>
        <time>2022-06-22T18:38:40Z</time>
      </trkpt>
      <trkpt lat="45.12161" lon="5.90968">
        <ele>2065</ele>
        <time>2022-06-22T18:38:54Z</time>
      </trkpt>
      <trkpt lat="45.12197" lon="5.90976">
        <ele>2067</ele>
        <time>2022-06-22T18:39:42Z</time>
      </trkpt>
      <trkpt lat="45.12204" lon="5.90975">
        <ele>2067</ele>
        <time>2022-06-22T18:39:52Z</time>
      </trkpt>
      <trkpt lat="45.12211" lon="5.9098">
        <ele>2067</ele>
        <time>2022-06-22T18:40:02Z</time>
      </trkpt>
      <trkpt lat="45.12215" lon="5.9099">
        <ele>2067</ele>
        <time>2022-06-22T18:40:13Z</time>
      </trkpt>
      <trkpt lat="45.12222" lon="5.90995">
        <ele>2068</ele>
        <time>2022-06-22T18:40:24Z</time>
      </trkpt>
      <trkpt lat="45.12243" lon="5.91001">
        <ele>2069</ele>
        <time>2022-06-22T18:40:52Z</time>
      </trkpt>
      <trkpt lat="45.12254" lon="5.91">
        <ele>2069</ele>
        <time>2022-06-22T18:41:07Z</time>
      </trkpt>
      <trkpt lat="45.12266" lon="5.91005">
        <ele>2071</ele>
        <time>2022-06-22T18:41:24Z</time>
      </trkpt>
      <trkpt lat="45.12288" lon="5.91031">
        <ele>2078</ele>
        <time>2022-06-22T18:42:02Z</time>
      </trkpt>
      <trkpt lat="45.123" lon="5.91038">
        <ele>2081</ele>
        <time>2022-06-22T18:42:19Z</time>
      </trkpt>
      <trkpt lat="45.12308" lon="5.91046">
        <ele>2084</ele>
        <time>2022-06-22T18:42:32Z</time>
      </trkpt>
      <trkpt lat="45.12322" lon="5.91047">
        <ele>2087</ele>
        <time>2022-06-22T18:42:51Z</time>
      </trkpt>
      <trkpt lat="45.12345" lon="5.91047">
        <ele>2092</ele>
        <time>2022-06-22T18:43:22Z</time>
      </trkpt>
      <trkpt lat="45.12357" lon="5.91042">
        <ele>2094</ele>
        <time>2022-06-22T18:43:38Z</time>
      </trkpt>
      <trkpt lat="45.1238" lon="5.91026">
        <ele>2096</ele>
        <time>2022-06-22T18:44:12Z</time>
      </trkpt>
      <trkpt lat="45.12393" lon="5.91004">
        <ele>2095</ele>
        <time>2022-06-22T18:44:39Z</time>
      </trkpt>
      <trkpt lat="45.12398" lon="5.90992">
        <ele>2096</ele>
        <time>2022-06-22T18:44:53Z</time>
      </trkpt>
      <trkpt lat="45.12408" lon="5.90976">
        <ele>2099</ele>
        <time>2022-06-22T18:45:13Z</time>
      </trkpt>
      <trkpt lat="45.1241" lon="5.90941">
        <ele>2101</ele>
        <time>2022-06-22T18:45:46Z</time>
      </trkpt>
      <trkpt lat="45.12418" lon="5.9092">
        <ele>2105</ele>
        <time>2022-06-22T18:46:08Z</time>
      </trkpt>
      <trkpt lat="45.12426" lon="5.90907">
        <ele>2110</ele>
        <time>2022-06-22T18:46:24Z</time>
      </trkpt>
      <trkpt lat="45.12446" lon="5.90891">
        <ele>2123</ele>
        <time>2022-06-22T18:46:55Z</time>
      </trkpt>
      <trkpt lat="45.1245" lon="5.90893">
        <ele>2124</ele>
        <time>2022-06-22T18:47:01Z</time>
      </trkpt>
      <trkpt lat="45.12453" lon="5.90904">
        <ele>2124</ele>
        <time>2022-06-22T18:47:12Z</time>
      </trkpt>
      <trkpt lat="45.1245" lon="5.90916">
        <ele>2120</ele>
        <time>2022-06-22T18:47:24Z</time>
      </trkpt>
      <trkpt lat="45.12453" lon="5.90932">
        <ele>2121</ele>
        <time>2022-06-22T18:47:39Z</time>
      </trkpt>
      <trkpt lat="45.12459" lon="5.90935">
        <ele>2124</ele>
        <time>2022-06-22T18:47:48Z</time>
      </trkpt>
      <trkpt lat="45.12461" lon="5.90943">
        <ele>2125</ele>
        <time>2022-06-22T18:47:56Z</time>
      </trkpt>
      <trkpt lat="45.12466" lon="5.90948">
        <ele>2127</ele>
        <time>2022-06-22T18:48:04Z</time>
      </trkpt>
      <trkpt lat="45.12477" lon="5.90918">
        <ele>2133</ele>
        <time>2022-06-22T18:48:36Z</time>
      </trkpt>
      <trkpt lat="45.12481" lon="5.90917">
        <ele>2135</ele>
        <time>2022-06-22T18:48:41Z</time>
      </trkpt>
      <trkpt lat="45.12485" lon="5.90921">
        <ele>2137</ele>
        <time>2022-06-22T18:48:48Z</time>
      </trkpt>
      <trkpt lat="45.12489" lon="5.90939">
        <ele>2139</ele>
        <time>2022-06-22T18:49:06Z</time>
      </trkpt>
      <trkpt lat="45.12493" lon="5.90948">
        <ele>2141</ele>
        <time>2022-06-22T18:49:16Z</time>
      </trkpt>
      <trkpt lat="45.12503" lon="5.90964">
        <ele>2145</ele>
        <time>2022-06-22T18:49:36Z</time>
      </trkpt>
      <trkpt lat="45.12512" lon="5.90981">
        <ele>2148</ele>
        <time>2022-06-22T18:49:56Z</time>
      </trkpt>
      <trkpt lat="45.12522" lon="5.91025">
        <ele>2155</ele>
        <time>2022-06-22T18:50:39Z</time>
      </trkpt>
      <trkpt lat="45.1252" lon="5.91043">
        <ele>2157</ele>
        <time>2022-06-22T18:50:56Z</time>
      </trkpt>
      <trkpt lat="45.12515" lon="5.91062">
        <ele>2158</ele>
        <time>2022-06-22T18:51:16Z</time>
      </trkpt>
      <trkpt lat="45.12514" lon="5.91083">
        <ele>2161</ele>
        <time>2022-06-22T18:51:35Z</time>
      </trkpt>
      <trkpt lat="45.12507" lon="5.91116">
        <ele>2162</ele>
        <time>2022-06-22T18:52:08Z</time>
      </trkpt>
      <trkpt lat="45.12507" lon="5.91154">
        <ele>2167</ele>
        <time>2022-06-22T18:52:44Z</time>
      </trkpt>
      <trkpt lat="45.12498" lon="5.91184">
        <ele>2162</ele>
        <time>2022-06-22T18:53:14Z</time>
      </trkpt>
      <trkpt lat="45.12505" lon="5.912">
        <ele>2161</ele>
        <time>2022-06-22T18:53:32Z</time>
      </trkpt>
      <trkpt lat="45.12554" lon="5.91259">
        <ele>2163</ele>
        <time>2022-06-22T18:54:58Z</time>
      </trkpt>
      <trkpt lat="45.12582" lon="5.91307">
        <ele>2153</ele>
        <time>2022-06-22T18:55:56Z</time>
      </trkpt>
      <trkpt lat="45.12592" lon="5.91325">
        <ele>2149</ele>
        <time>2022-06-22T18:56:18Z</time>
      </trkpt>
      <trkpt lat="45.1261" lon="5.91385">
        <ele>2136</ele>
        <time>2022-06-22T18:57:19Z</time>
      </trkpt>
      <trkpt lat="45.12632" lon="5.91404">
        <ele>2139</ele>
        <time>2022-06-22T18:57:54Z</time>
      </trkpt>
      <trkpt lat="45.12638" lon="5.91418">
        <ele>2137</ele>
        <time>2022-06-22T18:58:09Z</time>
      </trkpt>
      <trkpt lat="45.12643" lon="5.91424">
        <ele>2138</ele>
        <time>2022-06-22T18:58:18Z</time>
      </trkpt>
      <trkpt lat="45.12651" lon="5.91443">
        <ele>2136</ele>
        <time>2022-06-22T18:58:39Z</time>
      </trkpt>
      <trkpt lat="45.12653" lon="5.91454">
        <ele>2134</ele>
        <time>2022-06-22T18:58:50Z</time>
      </trkpt>
      <trkpt lat="45.12666" lon="5.91487">
        <ele>2131</ele>
        <time>2022-06-22T18:59:25Z</time>
      </trkpt>
      <trkpt lat="45.12671" lon="5.91528">
        <ele>2126</ele>
        <time>2022-06-22T19:00:04Z</time>
      </trkpt>
      <trkpt lat="45.12678" lon="5.91543">
        <ele>2127</ele>
        <time>2022-06-22T19:00:21Z</time>
      </trkpt>
      <trkpt lat="45.12679" lon="5.91553">
        <ele>2126</ele>
        <time>2022-06-22T19:00:31Z</time>
      </trkpt>
      <trkpt lat="45.12681" lon="5.91578">
        <ele>2124</ele>
        <time>2022-06-22T19:00:54Z</time>
      </trkpt>
      <trkpt lat="45.12685" lon="5.91589">
        <ele>2124</ele>
        <time>2022-06-22T19:01:06Z</time>
      </trkpt>
      <trkpt lat="45.12688" lon="5.91604">
        <ele>2123</ele>
        <time>2022-06-22T19:01:21Z</time>
      </trkpt>
      <trkpt lat="45.12692" lon="5.91614">
        <ele>2124</ele>
        <time>2022-06-22T19:01:32Z</time>
      </trkpt>
      <trkpt lat="45.12696" lon="5.9162">
        <ele>2125</ele>
        <time>2022-06-22T19:01:39Z</time>
      </trkpt>
      <trkpt lat="45.12706" lon="5.91656">
        <ele>2124</ele>
        <time>2022-06-22T19:02:16Z</time>
      </trkpt>
      <trkpt lat="45.12715" lon="5.91671">
        <ele>2126</ele>
        <time>2022-06-22T19:02:34Z</time>
      </trkpt>
      <trkpt lat="45.12719" lon="5.91694">
        <ele>2122</ele>
        <time>2022-06-22T19:02:57Z</time>
      </trkpt>
      <trkpt lat="45.12726" lon="5.91719">
        <ele>2119</ele>
        <time>2022-06-22T19:03:22Z</time>
      </trkpt>
      <trkpt lat="45.12728" lon="5.91739">
        <ele>2114</ele>
        <time>2022-06-22T19:03:41Z</time>
      </trkpt>
      <trkpt lat="45.12731" lon="5.9174">
        <ele>2115</ele>
        <time>2022-06-22T19:03:45Z</time>
      </trkpt>
      <trkpt lat="45.12737" lon="5.91752">
        <ele>2115</ele>
        <time>2022-06-22T19:03:59Z</time>
      </trkpt>
      <trkpt lat="45.12747" lon="5.91759">
        <ele>2118</ele>
        <time>2022-06-22T19:04:14Z</time>
      </trkpt>
      <trkpt lat="45.12763" lon="5.91796">
        <ele>2110</ele>
        <time>2022-06-22T19:04:55Z</time>
      </trkpt>
      <trkpt lat="45.12766" lon="5.91808">
        <ele>2108</ele>
        <time>2022-06-22T19:05:07Z</time>
      </trkpt>
      <trkpt lat="45.12773" lon="5.91817">
        <ele>2106</ele>
        <time>2022-06-22T19:05:19Z</time>
      </trkpt>
      <trkpt lat="45.12781" lon="5.91824">
        <ele>2105</ele>
        <time>2022-06-22T19:05:32Z</time>
      </trkpt>
      <trkpt lat="45.12787" lon="5.91838">
        <ele>2104</ele>
        <time>2022-06-22T19:05:47Z</time>
      </trkpt>
      <trkpt lat="45.12786" lon="5.91843">
        <ele>2103</ele>
        <time>2022-06-22T19:05:52Z</time>
      </trkpt>
      <trkpt lat="45.12789" lon="5.91849">
        <ele>2102</ele>
        <time>2022-06-22T19:05:59Z</time>
      </trkpt>
      <trkpt lat="45.12796" lon="5.91857">
        <ele>2102</ele>
        <time>2022-06-22T19:06:11Z</time>
      </trkpt>
      <trkpt lat="45.12806" lon="5.91878">
        <ele>2101</ele>
        <time>2022-06-22T19:06:35Z</time>
      </trkpt>
      <trkpt lat="45.12813" lon="5.91885">
        <ele>2101</ele>
        <time>2022-06-22T19:06:46Z</time>
      </trkpt>
      <trkpt lat="45.12825" lon="5.91909">
        <ele>2101</ele>
        <time>2022-06-22T19:07:14Z</time>
      </trkpt>
      <trkpt lat="45.1283" lon="5.91923">
        <ele>2102</ele>
        <time>2022-06-22T19:07:29Z</time>
      </trkpt>
      <trkpt lat="45.12839" lon="5.91939">
        <ele>2101</ele>
        <time>2022-06-22T19:07:48Z</time>
      </trkpt>
      <trkpt lat="45.12857" lon="5.91965">
        <ele>2098</ele>
        <time>2022-06-22T19:08:22Z</time>
      </trkpt>
      <trkpt lat="45.12855" lon="5.91995">
        <ele>2103</ele>
        <time>2022-06-22T19:08:51Z</time>
      </trkpt>
      <trkpt lat="45.12857" lon="5.91965">
        <ele>2098</ele>
        <time>2022-06-22T19:09:19Z</time>
      </trkpt>
      <trkpt lat="45.12872" lon="5.91959">
        <ele>2093</ele>
        <time>2022-06-22T19:09:40Z</time>
      </trkpt>
      <trkpt lat="45.12878" lon="5.91954">
        <ele>2090</ele>
        <time>2022-06-22T19:09:49Z</time>
      </trkpt>
      <trkpt lat="45.1288" lon="5.91938">
        <ele>2086</ele>
        <time>2022-06-22T19:10:04Z</time>
      </trkpt>
      <trkpt lat="45.12887" lon="5.91928">
        <ele>2081</ele>
        <time>2022-06-22T19:10:18Z</time>
      </trkpt>
      <trkpt lat="45.12893" lon="5.91942">
        <ele>2082</ele>
        <time>2022-06-22T19:10:33Z</time>
      </trkpt>
      <trkpt lat="45.12901" lon="5.91942">
        <ele>2080</ele>
        <time>2022-06-22T19:10:44Z</time>
      </trkpt>
      <trkpt lat="45.12901" lon="5.91937">
        <ele>2078</ele>
        <time>2022-06-22T19:10:49Z</time>
      </trkpt>
      <trkpt lat="45.12907" lon="5.91928">
        <ele>2073</ele>
        <time>2022-06-22T19:11:00Z</time>
      </trkpt>
      <trkpt lat="45.12911" lon="5.91904">
        <ele>2064</ele>
        <time>2022-06-22T19:11:23Z</time>
      </trkpt>
      <trkpt lat="45.12917" lon="5.91889">
        <ele>2058</ele>
        <time>2022-06-22T19:11:40Z</time>
      </trkpt>
      <trkpt lat="45.12919" lon="5.91876">
        <ele>2055</ele>
        <time>2022-06-22T19:11:52Z</time>
      </trkpt>
      <trkpt lat="45.12918" lon="5.91869">
        <ele>2054</ele>
        <time>2022-06-22T19:11:59Z</time>
      </trkpt>
      <trkpt lat="45.12922" lon="5.91861">
        <ele>2050</ele>
        <time>2022-06-22T19:12:08Z</time>
      </trkpt>
      <trkpt lat="45.12922" lon="5.91855">
        <ele>2049</ele>
        <time>2022-06-22T19:12:14Z</time>
      </trkpt>
      <trkpt lat="45.12924" lon="5.91848">
        <ele>2047</ele>
        <time>2022-06-22T19:12:21Z</time>
      </trkpt>
      <trkpt lat="45.12923" lon="5.9184">
        <ele>2045</ele>
        <time>2022-06-22T19:12:29Z</time>
      </trkpt>
      <trkpt lat="45.12925" lon="5.91835">
        <ele>2044</ele>
        <time>2022-06-22T19:12:34Z</time>
      </trkpt>
      <trkpt lat="45.12925" lon="5.91816">
        <ele>2043</ele>
        <time>2022-06-22T19:12:52Z</time>
      </trkpt>
      <trkpt lat="45.12927" lon="5.91809">
        <ele>2043</ele>
        <time>2022-06-22T19:12:59Z</time>
      </trkpt>
      <trkpt lat="45.12937" lon="5.91796">
        <ele>2038</ele>
        <time>2022-06-22T19:13:17Z</time>
      </trkpt>
      <trkpt lat="45.12942" lon="5.91783">
        <ele>2036</ele>
        <time>2022-06-22T19:13:31Z</time>
      </trkpt>
      <trkpt lat="45.1295" lon="5.91772">
        <ele>2033</ele>
        <time>2022-06-22T19:13:46Z</time>
      </trkpt>
      <trkpt lat="45.12956" lon="5.91757">
        <ele>2030</ele>
        <time>2022-06-22T19:14:02Z</time>
      </trkpt>
      <trkpt lat="45.12971" lon="5.91737">
        <ele>2024</ele>
        <time>2022-06-22T19:14:30Z</time>
      </trkpt>
      <trkpt lat="45.1298" lon="5.91722">
        <ele>2021</ele>
        <time>2022-06-22T19:14:48Z</time>
      </trkpt>
      <trkpt lat="45.1299" lon="5.91711">
        <ele>2017</ele>
        <time>2022-06-22T19:15:05Z</time>
      </trkpt>
      <trkpt lat="45.12997" lon="5.91706">
        <ele>2014</ele>
        <time>2022-06-22T19:15:15Z</time>
      </trkpt>
      <trkpt lat="45.13006" lon="5.91689">
        <ele>2012</ele>
        <time>2022-06-22T19:15:35Z</time>
      </trkpt>
      <trkpt lat="45.13033" lon="5.91661">
        <ele>2008</ele>
        <time>2022-06-22T19:16:20Z</time>
      </trkpt>
      <trkpt lat="45.13054" lon="5.91663">
        <ele>2004</ele>
        <time>2022-06-22T19:16:48Z</time>
      </trkpt>
      <trkpt lat="45.13061" lon="5.91669">
        <ele>2002</ele>
        <time>2022-06-22T19:16:59Z</time>
      </trkpt>
      <trkpt lat="45.13062" lon="5.91677">
        <ele>2002</ele>
        <time>2022-06-22T19:17:07Z</time>
      </trkpt>
      <trkpt lat="45.13069" lon="5.91688">
        <ele>2001</ele>
        <time>2022-06-22T19:17:21Z</time>
      </trkpt>
      <trkpt lat="45.13079" lon="5.91704">
        <ele>1999</ele>
        <time>2022-06-22T19:17:41Z</time>
      </trkpt>
      <trkpt lat="45.13083" lon="5.91706">
        <ele>1998</ele>
        <time>2022-06-22T19:17:47Z</time>
      </trkpt>
      <trkpt lat="45.13086" lon="5.91713">
        <ele>1998</ele>
        <time>2022-06-22T19:17:54Z</time>
      </trkpt>
      <trkpt lat="45.13097" lon="5.91723">
        <ele>1998</ele>
        <time>2022-06-22T19:18:12Z</time>
      </trkpt>
      <trkpt lat="45.13114" lon="5.91733">
        <ele>1997</ele>
        <time>2022-06-22T19:18:36Z</time>
      </trkpt>
      <trkpt lat="45.13128" lon="5.91723">
        <ele>1997</ele>
        <time>2022-06-22T19:18:57Z</time>
      </trkpt>
      <trkpt lat="45.13134" lon="5.91715">
        <ele>1997</ele>
        <time>2022-06-22T19:19:08Z</time>
      </trkpt>
      <trkpt lat="45.13153" lon="5.91714">
        <ele>1996</ele>
        <time>2022-06-22T19:19:34Z</time>
      </trkpt>
      <trkpt lat="45.13157" lon="5.91719">
        <ele>1996</ele>
        <time>2022-06-22T19:19:41Z</time>
      </trkpt>
      <trkpt lat="45.13171" lon="5.91728">
        <ele>1997</ele>
        <time>2022-06-22T19:20:01Z</time>
      </trkpt>
      <trkpt lat="45.13173" lon="5.91732">
        <ele>1997</ele>
        <time>2022-06-22T19:20:06Z</time>
      </trkpt>
      <trkpt lat="45.13179" lon="5.91732">
        <ele>1997</ele>
        <time>2022-06-22T19:20:14Z</time>
      </trkpt>
      <trkpt lat="45.13184" lon="5.91737">
        <ele>1998</ele>
        <time>2022-06-22T19:20:22Z</time>
      </trkpt>
      <trkpt lat="45.13188" lon="5.91737">
        <ele>1998</ele>
        <time>2022-06-22T19:20:27Z</time>
      </trkpt>
      <trkpt lat="45.13195" lon="5.91728">
        <ele>1999</ele>
        <time>2022-06-22T19:20:40Z</time>
      </trkpt>
      <trkpt lat="45.13198" lon="5.91716">
        <ele>1999</ele>
        <time>2022-06-22T19:20:52Z</time>
      </trkpt>
      <trkpt lat="45.13201" lon="5.91714">
        <ele>1999</ele>
        <time>2022-06-22T19:20:56Z</time>
      </trkpt>
      <trkpt lat="45.13203" lon="5.91715">
        <ele>1999</ele>
        <time>2022-06-22T19:20:59Z</time>
      </trkpt>
      <trkpt lat="45.13209" lon="5.91722">
        <ele>2000</ele>
        <time>2022-06-22T19:21:09Z</time>
      </trkpt>
      <trkpt lat="45.1322" lon="5.9173">
        <ele>2001</ele>
        <time>2022-06-22T19:21:26Z</time>
      </trkpt>
      <trkpt lat="45.13228" lon="5.91728">
        <ele>2002</ele>
        <time>2022-06-22T19:21:37Z</time>
      </trkpt>
      <trkpt lat="45.13233" lon="5.91723">
        <ele>2002</ele>
        <time>2022-06-22T19:21:45Z</time>
      </trkpt>
      <trkpt lat="45.13236" lon="5.91723">
        <ele>2003</ele>
        <time>2022-06-22T19:21:49Z</time>
      </trkpt>
      <trkpt lat="45.13259" lon="5.91726">
        <ele>2005</ele>
        <time>2022-06-22T19:22:20Z</time>
      </trkpt>
      <trkpt lat="45.13263" lon="5.9172">
        <ele>2006</ele>
        <time>2022-06-22T19:22:28Z</time>
      </trkpt>
      <trkpt lat="45.13271" lon="5.91715">
        <ele>2007</ele>
        <time>2022-06-22T19:22:39Z</time>
      </trkpt>
      <trkpt lat="45.1327" lon="5.91695">
        <ele>2007</ele>
        <time>2022-06-22T19:22:58Z</time>
      </trkpt>
      <trkpt lat="45.13272" lon="5.91687">
        <ele>2007</ele>
        <time>2022-06-22T19:23:06Z</time>
      </trkpt>
      <trkpt lat="45.13277" lon="5.91677">
        <ele>2008</ele>
        <time>2022-06-22T19:23:18Z</time>
      </trkpt>
      <trkpt lat="45.13281" lon="5.91671">
        <ele>2009</ele>
        <time>2022-06-22T19:23:25Z</time>
      </trkpt>
      <trkpt lat="45.13286" lon="5.91668">
        <ele>2010</ele>
        <time>2022-06-22T19:23:33Z</time>
      </trkpt>
      <trkpt lat="45.13308" lon="5.9166">
        <ele>2013</ele>
        <time>2022-06-22T19:24:03Z</time>
      </trkpt>
      <trkpt lat="45.13313" lon="5.91628">
        <ele>2014</ele>
        <time>2022-06-22T19:24:34Z</time>
      </trkpt>
      <trkpt lat="45.13333" lon="5.91589">
        <ele>2018</ele>
        <time>2022-06-22T19:25:19Z</time>
      </trkpt>
      <trkpt lat="45.13337" lon="5.91565">
        <ele>2018</ele>
        <time>2022-06-22T19:25:42Z</time>
      </trkpt>
      <trkpt lat="45.13329" lon="5.91546">
        <ele>2014</ele>
        <time>2022-06-22T19:26:03Z</time>
      </trkpt>
      <trkpt lat="45.13332" lon="5.91524">
        <ele>2012</ele>
        <time>2022-06-22T19:26:24Z</time>
      </trkpt>
      <trkpt lat="45.13337" lon="5.9151">
        <ele>2013</ele>
        <time>2022-06-22T19:26:39Z</time>
      </trkpt>
      <trkpt lat="45.13337" lon="5.91474">
        <ele>2010</ele>
        <time>2022-06-22T19:27:13Z</time>
      </trkpt>
      <trkpt lat="45.13338" lon="5.91459">
        <ele>2010</ele>
        <time>2022-06-22T19:27:27Z</time>
      </trkpt>
      <trkpt lat="45.13337" lon="5.91445">
        <ele>2009</ele>
        <time>2022-06-22T19:27:40Z</time>
      </trkpt>
      <trkpt lat="45.13342" lon="5.91437">
        <ele>2011</ele>
        <time>2022-06-22T19:27:51Z</time>
      </trkpt>
      <trkpt lat="45.13354" lon="5.91391">
        <ele>2017</ele>
        <time>2022-06-22T19:28:37Z</time>
      </trkpt>
      <trkpt lat="45.13351" lon="5.91385">
        <ele>2016</ele>
        <time>2022-06-22T19:28:44Z</time>
      </trkpt>
      <trkpt lat="45.13347" lon="5.91313">
        <ele>2018</ele>
        <time>2022-06-22T19:29:52Z</time>
      </trkpt>
      <trkpt lat="45.13369" lon="5.91347">
        <ele>2026</ele>
        <time>2022-06-22T19:30:35Z</time>
      </trkpt>
      <trkpt lat="45.13373" lon="5.91359">
        <ele>2027</ele>
        <time>2022-06-22T19:30:48Z</time>
      </trkpt>
      <trkpt lat="45.13382" lon="5.91378">
        <ele>2031</ele>
        <time>2022-06-22T19:31:09Z</time>
      </trkpt>
      <trkpt lat="45.13387" lon="5.91379">
        <ele>2033</ele>
        <time>2022-06-22T19:31:16Z</time>
      </trkpt>
      <trkpt lat="45.13405" lon="5.91364">
        <ele>2042</ele>
        <time>2022-06-22T19:31:44Z</time>
      </trkpt>
      <trkpt lat="45.13412" lon="5.91355">
        <ele>2044</ele>
        <time>2022-06-22T19:31:56Z</time>
      </trkpt>
      <trkpt lat="45.13414" lon="5.91349">
        <ele>2045</ele>
        <time>2022-06-22T19:32:03Z</time>
      </trkpt>
      <trkpt lat="45.13423" lon="5.91342">
        <ele>2050</ele>
        <time>2022-06-22T19:32:16Z</time>
      </trkpt>
      <trkpt lat="45.13425" lon="5.91332">
        <ele>2050</ele>
        <time>2022-06-22T19:32:26Z</time>
      </trkpt>
      <trkpt lat="45.13432" lon="5.91319">
        <ele>2052</ele>
        <time>2022-06-22T19:32:41Z</time>
      </trkpt>
      <trkpt lat="45.13438" lon="5.91312">
        <ele>2053</ele>
        <time>2022-06-22T19:32:52Z</time>
      </trkpt>
      <trkpt lat="45.13446" lon="5.91295">
        <ele>2053</ele>
        <time>2022-06-22T19:33:11Z</time>
      </trkpt>
      <trkpt lat="45.13458" lon="5.91283">
        <ele>2053</ele>
        <time>2022-06-22T19:33:31Z</time>
      </trkpt>
      <trkpt lat="45.13468" lon="5.91266">
        <ele>2050</ele>
        <time>2022-06-22T19:33:51Z</time>
      </trkpt>
      <trkpt lat="45.13471" lon="5.91254">
        <ele>2047</ele>
        <time>2022-06-22T19:34:03Z</time>
      </trkpt>
      <trkpt lat="45.13477" lon="5.91251">
        <ele>2046</ele>
        <time>2022-06-22T19:34:12Z</time>
      </trkpt>
      <trkpt lat="45.1348" lon="5.91243">
        <ele>2044</ele>
        <time>2022-06-22T19:34:20Z</time>
      </trkpt>
      <trkpt lat="45.13485" lon="5.91226">
        <ele>2040</ele>
        <time>2022-06-22T19:34:38Z</time>
      </trkpt>
      <trkpt lat="45.13486" lon="5.91211">
        <ele>2036</ele>
        <time>2022-06-22T19:34:52Z</time>
      </trkpt>
      <trkpt lat="45.13485" lon="5.91209">
        <ele>2036</ele>
        <time>2022-06-22T19:34:54Z</time>
      </trkpt>
      <trkpt lat="45.13473" lon="5.91208">
        <ele>2035</ele>
        <time>2022-06-22T19:35:10Z</time>
      </trkpt>
      <trkpt lat="45.1347" lon="5.91207">
        <ele>2034</ele>
        <time>2022-06-22T19:35:14Z</time>
      </trkpt>
      <trkpt lat="45.13469" lon="5.91204">
        <ele>2034</ele>
        <time>2022-06-22T19:35:18Z</time>
      </trkpt>
      <trkpt lat="45.1347" lon="5.91202">
        <ele>2033</ele>
        <time>2022-06-22T19:35:20Z</time>
      </trkpt>
      <trkpt lat="45.13476" lon="5.91202">
        <ele>2033</ele>
        <time>2022-06-22T19:35:28Z</time>
      </trkpt>
      <trkpt lat="45.13475" lon="5.91198">
        <ele>2032</ele>
        <time>2022-06-22T19:35:32Z</time>
      </trkpt>
      <trkpt lat="45.1348" lon="5.912">
        <ele>2033</ele>
        <time>2022-06-22T19:35:39Z</time>
      </trkpt>
      <trkpt lat="45.13479" lon="5.91197">
        <ele>2032</ele>
        <time>2022-06-22T19:35:42Z</time>
      </trkpt>
      <trkpt lat="45.13481" lon="5.91196">
        <ele>2032</ele>
        <time>2022-06-22T19:35:45Z</time>
      </trkpt>
      <trkpt lat="45.1348" lon="5.91188">
        <ele>2030</ele>
        <time>2022-06-22T19:35:52Z</time>
      </trkpt>
      <trkpt lat="45.13489" lon="5.91188">
        <ele>2030</ele>
        <time>2022-06-22T19:36:04Z</time>
      </trkpt>
      <trkpt lat="45.13485" lon="5.91168">
        <ele>2025</ele>
        <time>2022-06-22T19:36:24Z</time>
      </trkpt>
      <trkpt lat="45.13488" lon="5.91155">
        <ele>2018</ele>
        <time>2022-06-22T19:36:37Z</time>
      </trkpt>
      <trkpt lat="45.13492" lon="5.91159">
        <ele>2020</ele>
        <time>2022-06-22T19:36:43Z</time>
      </trkpt>
      <trkpt lat="45.13496" lon="5.91154">
        <ele>2018</ele>
        <time>2022-06-22T19:36:51Z</time>
      </trkpt>
      <trkpt lat="45.13499" lon="5.91156">
        <ele>2019</ele>
        <time>2022-06-22T19:36:55Z</time>
      </trkpt>
      <trkpt lat="45.13504" lon="5.91154">
        <ele>2018</ele>
        <time>2022-06-22T19:37:02Z</time>
      </trkpt>
      <trkpt lat="45.1351" lon="5.91158">
        <ele>2019</ele>
        <time>2022-06-22T19:37:11Z</time>
      </trkpt>
      <trkpt lat="45.13516" lon="5.91156">
        <ele>2018</ele>
        <time>2022-06-22T19:37:19Z</time>
      </trkpt>
      <trkpt lat="45.13516" lon="5.91149">
        <ele>2014</ele>
        <time>2022-06-22T19:37:26Z</time>
      </trkpt>
      <trkpt lat="45.13513" lon="5.91139">
        <ele>2009</ele>
        <time>2022-06-22T19:37:36Z</time>
      </trkpt>
      <trkpt lat="45.1351" lon="5.9114">
        <ele>2010</ele>
        <time>2022-06-22T19:37:40Z</time>
      </trkpt>
      <trkpt lat="45.13509" lon="5.91137">
        <ele>2008</ele>
        <time>2022-06-22T19:37:43Z</time>
      </trkpt>
      <trkpt lat="45.13513" lon="5.9113">
        <ele>2004</ele>
        <time>2022-06-22T19:37:52Z</time>
      </trkpt>
      <trkpt lat="45.13505" lon="5.91123">
        <ele>2001</ele>
        <time>2022-06-22T19:38:04Z</time>
      </trkpt>
      <trkpt lat="45.13505" lon="5.91116">
        <ele>1997</ele>
        <time>2022-06-22T19:38:11Z</time>
      </trkpt>
      <trkpt lat="45.13508" lon="5.91113">
        <ele>1995</ele>
        <time>2022-06-22T19:38:16Z</time>
      </trkpt>
      <trkpt lat="45.13504" lon="5.91108">
        <ele>1992</ele>
        <time>2022-06-22T19:38:23Z</time>
      </trkpt>
      <trkpt lat="45.13505" lon="5.91104">
        <ele>1990</ele>
        <time>2022-06-22T19:38:27Z</time>
      </trkpt>
      <trkpt lat="45.13513" lon="5.91097">
        <ele>1986</ele>
        <time>2022-06-22T19:38:39Z</time>
      </trkpt>
      <trkpt lat="45.13513" lon="5.91093">
        <ele>1984</ele>
        <time>2022-06-22T19:38:43Z</time>
      </trkpt>
      <trkpt lat="45.13516" lon="5.91085">
        <ele>1980</ele>
        <time>2022-06-22T19:38:51Z</time>
      </trkpt>
      <trkpt lat="45.13515" lon="5.91076">
        <ele>1976</ele>
        <time>2022-06-22T19:39:00Z</time>
      </trkpt>
      <trkpt lat="45.13513" lon="5.91053">
        <ele>1967</ele>
        <time>2022-06-22T19:39:22Z</time>
      </trkpt>
      <trkpt lat="45.13512" lon="5.91052">
        <ele>1966</ele>
        <time>2022-06-22T19:39:24Z</time>
      </trkpt>
      <trkpt lat="45.13505" lon="5.9106">
        <ele>1970</ele>
        <time>2022-06-22T19:39:36Z</time>
      </trkpt>
      <trkpt lat="45.1349" lon="5.91055">
        <ele>1967</ele>
        <time>2022-06-22T19:39:56Z</time>
      </trkpt>
      <trkpt lat="45.1349" lon="5.91053">
        <ele>1966</ele>
        <time>2022-06-22T19:39:58Z</time>
      </trkpt>
      <trkpt lat="45.13487" lon="5.9105">
        <ele>1964</ele>
        <time>2022-06-22T19:40:03Z</time>
      </trkpt>
      <trkpt lat="45.13489" lon="5.91043">
        <ele>1962</ele>
        <time>2022-06-22T19:40:10Z</time>
      </trkpt>
      <trkpt lat="45.13488" lon="5.91036">
        <ele>1959</ele>
        <time>2022-06-22T19:40:17Z</time>
      </trkpt>
      <trkpt lat="45.13494" lon="5.91015">
        <ele>1951</ele>
        <time>2022-06-22T19:40:38Z</time>
      </trkpt>
      <trkpt lat="45.13488" lon="5.91003">
        <ele>1946</ele>
        <time>2022-06-22T19:40:52Z</time>
      </trkpt>
      <trkpt lat="45.13484" lon="5.90975">
        <ele>1941</ele>
        <time>2022-06-22T19:41:19Z</time>
      </trkpt>
      <trkpt lat="45.13481" lon="5.90972">
        <ele>1941</ele>
        <time>2022-06-22T19:41:24Z</time>
      </trkpt>
      <trkpt lat="45.13481" lon="5.9097">
        <ele>1940</ele>
        <time>2022-06-22T19:41:26Z</time>
      </trkpt>
      <trkpt lat="45.13476" lon="5.9097">
        <ele>1940</ele>
        <time>2022-06-22T19:41:32Z</time>
      </trkpt>
      <trkpt lat="45.13465" lon="5.90963">
        <ele>1939</ele>
        <time>2022-06-22T19:41:48Z</time>
      </trkpt>
      <trkpt lat="45.13465" lon="5.90957">
        <ele>1938</ele>
        <time>2022-06-22T19:41:54Z</time>
      </trkpt>
      <trkpt lat="45.1346" lon="5.90948">
        <ele>1937</ele>
        <time>2022-06-22T19:42:05Z</time>
      </trkpt>
      <trkpt lat="45.13458" lon="5.90942">
        <ele>1936</ele>
        <time>2022-06-22T19:42:11Z</time>
      </trkpt>
      <trkpt lat="45.13459" lon="5.90938">
        <ele>1935</ele>
        <time>2022-06-22T19:42:15Z</time>
      </trkpt>
      <trkpt lat="45.13458" lon="5.90933">
        <ele>1934</ele>
        <time>2022-06-22T19:42:20Z</time>
      </trkpt>
      <trkpt lat="45.13463" lon="5.90923">
        <ele>1932</ele>
        <time>2022-06-22T19:42:31Z</time>
      </trkpt>
      <trkpt lat="45.13464" lon="5.90918">
        <ele>1931</ele>
        <time>2022-06-22T19:42:36Z</time>
      </trkpt>
      <trkpt lat="45.13461" lon="5.90913">
        <ele>1930</ele>
        <time>2022-06-22T19:42:42Z</time>
      </trkpt>
      <trkpt lat="45.13451" lon="5.90912">
        <ele>1930</ele>
        <time>2022-06-22T19:42:56Z</time>
      </trkpt>
      <trkpt lat="45.13441" lon="5.90903">
        <ele>1927</ele>
        <time>2022-06-22T19:43:12Z</time>
      </trkpt>
      <trkpt lat="45.13444" lon="5.90899">
        <ele>1926</ele>
        <time>2022-06-22T19:43:17Z</time>
      </trkpt>
      <trkpt lat="45.13443" lon="5.90887">
        <ele>1923</ele>
        <time>2022-06-22T19:43:29Z</time>
      </trkpt>
      <trkpt lat="45.13447" lon="5.90885">
        <ele>1923</ele>
        <time>2022-06-22T19:43:34Z</time>
      </trkpt>
      <trkpt lat="45.13448" lon="5.90882">
        <ele>1922</ele>
        <time>2022-06-22T19:43:37Z</time>
      </trkpt>
      <trkpt lat="45.13447" lon="5.90869">
        <ele>1919</ele>
        <time>2022-06-22T19:43:50Z</time>
      </trkpt>
      <trkpt lat="45.13449" lon="5.90856">
        <ele>1916</ele>
        <time>2022-06-22T19:44:02Z</time>
      </trkpt>
      <trkpt lat="45.13452" lon="5.90852">
        <ele>1915</ele>
        <time>2022-06-22T19:44:08Z</time>
      </trkpt>
      <trkpt lat="45.1345" lon="5.90842">
        <ele>1913</ele>
        <time>2022-06-22T19:44:17Z</time>
      </trkpt>
      <trkpt lat="45.13452" lon="5.90834">
        <ele>1911</ele>
        <time>2022-06-22T19:44:25Z</time>
      </trkpt>
      <trkpt lat="45.1345" lon="5.90828">
        <ele>1910</ele>
        <time>2022-06-22T19:44:32Z</time>
      </trkpt>
      <trkpt lat="45.13451" lon="5.90826">
        <ele>1910</ele>
        <time>2022-06-22T19:44:34Z</time>
      </trkpt>
      <trkpt lat="45.13445" lon="5.90812">
        <ele>1908</ele>
        <time>2022-06-22T19:44:49Z</time>
      </trkpt>
      <trkpt lat="45.13444" lon="5.90798">
        <ele>1906</ele>
        <time>2022-06-22T19:45:03Z</time>
      </trkpt>
      <trkpt lat="45.13439" lon="5.90777">
        <ele>1903</ele>
        <time>2022-06-22T19:45:24Z</time>
      </trkpt>
      <trkpt lat="45.13438" lon="5.90769">
        <ele>1902</ele>
        <time>2022-06-22T19:45:31Z</time>
      </trkpt>
      <trkpt lat="45.13441" lon="5.90754">
        <ele>1900</ele>
        <time>2022-06-22T19:45:46Z</time>
      </trkpt>
      <trkpt lat="45.13438" lon="5.90739">
        <ele>1898</ele>
        <time>2022-06-22T19:46:01Z</time>
      </trkpt>
      <trkpt lat="45.13439" lon="5.90733">
        <ele>1897</ele>
        <time>2022-06-22T19:46:06Z</time>
      </trkpt>
      <trkpt lat="45.13436" lon="5.90726">
        <ele>1895</ele>
        <time>2022-06-22T19:46:14Z</time>
      </trkpt>
      <trkpt lat="45.13439" lon="5.90713">
        <ele>1894</ele>
        <time>2022-06-22T19:46:27Z</time>
      </trkpt>
      <trkpt lat="45.13436" lon="5.90701">
        <ele>1891</ele>
        <time>2022-06-22T19:46:39Z</time>
      </trkpt>
      <trkpt lat="45.1343" lon="5.90686">
        <ele>1888</ele>
        <time>2022-06-22T19:46:55Z</time>
      </trkpt>
      <trkpt lat="45.13424" lon="5.90678">
        <ele>1886</ele>
        <time>2022-06-22T19:47:06Z</time>
      </trkpt>
      <trkpt lat="45.1342" lon="5.90669">
        <ele>1884</ele>
        <time>2022-06-22T19:47:16Z</time>
      </trkpt>
      <trkpt lat="45.13423" lon="5.90653">
        <ele>1882</ele>
        <time>2022-06-22T19:47:32Z</time>
      </trkpt>
      <trkpt lat="45.13421" lon="5.90643">
        <ele>1880</ele>
        <time>2022-06-22T19:47:42Z</time>
      </trkpt>
      <trkpt lat="45.13423" lon="5.90635">
        <ele>1879</ele>
        <time>2022-06-22T19:47:50Z</time>
      </trkpt>
      <trkpt lat="45.13428" lon="5.90623">
        <ele>1878</ele>
        <time>2022-06-22T19:48:03Z</time>
      </trkpt>
      <trkpt lat="45.13433" lon="5.90618">
        <ele>1877</ele>
        <time>2022-06-22T19:48:11Z</time>
      </trkpt>
      <trkpt lat="45.13437" lon="5.90608">
        <ele>1875</ele>
        <time>2022-06-22T19:48:22Z</time>
      </trkpt>
      <trkpt lat="45.13445" lon="5.90596">
        <ele>1872</ele>
        <time>2022-06-22T19:48:37Z</time>
      </trkpt>
      <trkpt lat="45.13447" lon="5.90576">
        <ele>1868</ele>
        <time>2022-06-22T19:48:56Z</time>
      </trkpt>
      <trkpt lat="45.1345" lon="5.9057">
        <ele>1866</ele>
        <time>2022-06-22T19:49:03Z</time>
      </trkpt>
      <trkpt lat="45.13454" lon="5.90556">
        <ele>1862</ele>
        <time>2022-06-22T19:49:17Z</time>
      </trkpt>
      <trkpt lat="45.13453" lon="5.90546">
        <ele>1860</ele>
        <time>2022-06-22T19:49:27Z</time>
      </trkpt>
      <trkpt lat="45.1345" lon="5.90538">
        <ele>1859</ele>
        <time>2022-06-22T19:49:35Z</time>
      </trkpt>
      <trkpt lat="45.13452" lon="5.90531">
        <ele>1857</ele>
        <time>2022-06-22T19:49:42Z</time>
      </trkpt>
      <trkpt lat="45.1345" lon="5.90527">
        <ele>1856</ele>
        <time>2022-06-22T19:49:47Z</time>
      </trkpt>
      <trkpt lat="45.13452" lon="5.90514">
        <ele>1853</ele>
        <time>2022-06-22T19:50:00Z</time>
      </trkpt>
      <trkpt lat="45.13451" lon="5.90498">
        <ele>1849</ele>
        <time>2022-06-22T19:50:15Z</time>
      </trkpt>
      <trkpt lat="45.13449" lon="5.90492">
        <ele>1849</ele>
        <time>2022-06-22T19:50:21Z</time>
      </trkpt>
      <trkpt lat="45.1345" lon="5.90485">
        <ele>1847</ele>
        <time>2022-06-22T19:50:28Z</time>
      </trkpt>
      <trkpt lat="45.13454" lon="5.90482">
        <ele>1845</ele>
        <time>2022-06-22T19:50:34Z</time>
      </trkpt>
      <trkpt lat="45.13456" lon="5.90476">
        <ele>1843</ele>
        <time>2022-06-22T19:50:40Z</time>
      </trkpt>
      <trkpt lat="45.13456" lon="5.9047">
        <ele>1842</ele>
        <time>2022-06-22T19:50:46Z</time>
      </trkpt>
      <trkpt lat="45.13454" lon="5.90464">
        <ele>1842</ele>
        <time>2022-06-22T19:50:52Z</time>
      </trkpt>
      <trkpt lat="45.13454" lon="5.9046">
        <ele>1841</ele>
        <time>2022-06-22T19:50:56Z</time>
      </trkpt>
      <trkpt lat="45.13457" lon="5.90457">
        <ele>1839</ele>
        <time>2022-06-22T19:51:01Z</time>
      </trkpt>
      <trkpt lat="45.13458" lon="5.90445">
        <ele>1836</ele>
        <time>2022-06-22T19:51:12Z</time>
      </trkpt>
      <trkpt lat="45.13455" lon="5.90438">
        <ele>1836</ele>
        <time>2022-06-22T19:51:20Z</time>
      </trkpt>
      <trkpt lat="45.13454" lon="5.90428">
        <ele>1834</ele>
        <time>2022-06-22T19:51:29Z</time>
      </trkpt>
      <trkpt lat="45.13459" lon="5.90412">
        <ele>1830</ele>
        <time>2022-06-22T19:51:46Z</time>
      </trkpt>
      <trkpt lat="45.1346" lon="5.90412">
        <ele>1829</ele>
        <time>2022-06-22T19:51:47Z</time>
      </trkpt>
      <trkpt lat="45.13464" lon="5.90418">
        <ele>1829</ele>
        <time>2022-06-22T19:51:55Z</time>
      </trkpt>
      <trkpt lat="45.13468" lon="5.90413">
        <ele>1827</ele>
        <time>2022-06-22T19:52:02Z</time>
      </trkpt>
      <trkpt lat="45.13469" lon="5.90389">
        <ele>1824</ele>
        <time>2022-06-22T19:52:24Z</time>
      </trkpt>
      <trkpt lat="45.13474" lon="5.90359">
        <ele>1819</ele>
        <time>2022-06-22T19:52:53Z</time>
      </trkpt>
      <trkpt lat="45.13475" lon="5.90345">
        <ele>1817</ele>
        <time>2022-06-22T19:53:07Z</time>
      </trkpt>
      <trkpt lat="45.13477" lon="5.90324">
        <ele>1815</ele>
        <time>2022-06-22T19:53:27Z</time>
      </trkpt>
      <trkpt lat="45.13477" lon="5.90318">
        <ele>1815</ele>
        <time>2022-06-22T19:53:32Z</time>
      </trkpt>
      <trkpt lat="45.13472" lon="5.90308">
        <ele>1816</ele>
        <time>2022-06-22T19:53:44Z</time>
      </trkpt>
      <trkpt lat="45.13471" lon="5.90296">
        <ele>1816</ele>
        <time>2022-06-22T19:53:55Z</time>
      </trkpt>
      <trkpt lat="45.13476" lon="5.90241">
        <ele>1811</ele>
        <time>2022-06-22T19:54:47Z</time>
      </trkpt>
      <trkpt lat="45.13477" lon="5.90236">
        <ele>1810</ele>
        <time>2022-06-22T19:54:52Z</time>
      </trkpt>
      <trkpt lat="45.13479" lon="5.90234">
        <ele>1810</ele>
        <time>2022-06-22T19:54:56Z</time>
      </trkpt>
      <trkpt lat="45.13484" lon="5.90234">
        <ele>1808</ele>
        <time>2022-06-22T19:55:02Z</time>
      </trkpt>
      <trkpt lat="45.13491" lon="5.9023">
        <ele>1805</ele>
        <time>2022-06-22T19:55:12Z</time>
      </trkpt>
      <trkpt lat="45.13507" lon="5.90213">
        <ele>1800</ele>
        <time>2022-06-22T19:55:39Z</time>
      </trkpt>
      <trkpt lat="45.13512" lon="5.90196">
        <ele>1797</ele>
        <time>2022-06-22T19:55:56Z</time>
      </trkpt>
      <trkpt lat="45.1352" lon="5.90184">
        <ele>1794</ele>
        <time>2022-06-22T19:56:12Z</time>
      </trkpt>
      <trkpt lat="45.13522" lon="5.90173">
        <ele>1792</ele>
        <time>2022-06-22T19:56:23Z</time>
      </trkpt>
      <trkpt lat="45.13525" lon="5.9017">
        <ele>1791</ele>
        <time>2022-06-22T19:56:28Z</time>
      </trkpt>
      <trkpt lat="45.13523" lon="5.90165">
        <ele>1791</ele>
        <time>2022-06-22T19:56:33Z</time>
      </trkpt>
      <trkpt lat="45.13531" lon="5.90158">
        <ele>1787</ele>
        <time>2022-06-22T19:56:45Z</time>
      </trkpt>
      <trkpt lat="45.13531" lon="5.90154">
        <ele>1786</ele>
        <time>2022-06-22T19:56:49Z</time>
      </trkpt>
      <trkpt lat="45.13529" lon="5.90153">
        <ele>1786</ele>
        <time>2022-06-22T19:56:52Z</time>
      </trkpt>
      <trkpt lat="45.13523" lon="5.90138">
        <ele>1784</ele>
        <time>2022-06-22T19:57:08Z</time>
      </trkpt>
      <trkpt lat="45.13521" lon="5.90132">
        <ele>1783</ele>
        <time>2022-06-22T19:57:15Z</time>
      </trkpt>
      <trkpt lat="45.13521" lon="5.90127">
        <ele>1781</ele>
        <time>2022-06-22T19:57:19Z</time>
      </trkpt>
      <trkpt lat="45.13533" lon="5.90128">
        <ele>1779</ele>
        <time>2022-06-22T19:57:35Z</time>
      </trkpt>
      <trkpt lat="45.13536" lon="5.90134">
        <ele>1780</ele>
        <time>2022-06-22T19:57:42Z</time>
      </trkpt>
      <trkpt lat="45.13538" lon="5.90133">
        <ele>1779</ele>
        <time>2022-06-22T19:57:45Z</time>
      </trkpt>
      <trkpt lat="45.1354" lon="5.90127">
        <ele>1777</ele>
        <time>2022-06-22T19:57:51Z</time>
      </trkpt>
      <trkpt lat="45.13548" lon="5.90124">
        <ele>1774</ele>
        <time>2022-06-22T19:58:02Z</time>
      </trkpt>
      <trkpt lat="45.13549" lon="5.90122">
        <ele>1773</ele>
        <time>2022-06-22T19:58:05Z</time>
      </trkpt>
      <trkpt lat="45.13549" lon="5.90117">
        <ele>1772</ele>
        <time>2022-06-22T19:58:09Z</time>
      </trkpt>
      <trkpt lat="45.13544" lon="5.90113">
        <ele>1772</ele>
        <time>2022-06-22T19:58:17Z</time>
      </trkpt>
      <trkpt lat="45.13542" lon="5.90107">
        <ele>1771</ele>
        <time>2022-06-22T19:58:23Z</time>
      </trkpt>
      <trkpt lat="45.1355" lon="5.90103">
        <ele>1768</ele>
        <time>2022-06-22T19:58:35Z</time>
      </trkpt>
      <trkpt lat="45.13547" lon="5.901">
        <ele>1767</ele>
        <time>2022-06-22T19:58:39Z</time>
      </trkpt>
      <trkpt lat="45.13549" lon="5.90099">
        <ele>1767</ele>
        <time>2022-06-22T19:58:42Z</time>
      </trkpt>
      <trkpt lat="45.13548" lon="5.90097">
        <ele>1766</ele>
        <time>2022-06-22T19:58:45Z</time>
      </trkpt>
      <trkpt lat="45.1355" lon="5.90096">
        <ele>1765</ele>
        <time>2022-06-22T19:58:47Z</time>
      </trkpt>
      <trkpt lat="45.13545" lon="5.90079">
        <ele>1762</ele>
        <time>2022-06-22T19:59:05Z</time>
      </trkpt>
      <trkpt lat="45.13545" lon="5.90063">
        <ele>1760</ele>
        <time>2022-06-22T19:59:20Z</time>
      </trkpt>
      <trkpt lat="45.13534" lon="5.90034">
        <ele>1757</ele>
        <time>2022-06-22T19:59:51Z</time>
      </trkpt>
      <trkpt lat="45.13521" lon="5.90018">
        <ele>1758</ele>
        <time>2022-06-22T20:00:14Z</time>
      </trkpt>
      <trkpt lat="45.13519" lon="5.90012">
        <ele>1757</ele>
        <time>2022-06-22T20:00:20Z</time>
      </trkpt>
      <trkpt lat="45.13518" lon="5.89997">
        <ele>1755</ele>
        <time>2022-06-22T20:00:34Z</time>
      </trkpt>
      <trkpt lat="45.13519" lon="5.89986">
        <ele>1755</ele>
        <time>2022-06-22T20:00:45Z</time>
      </trkpt>
      <trkpt lat="45.13525" lon="5.89973">
        <ele>1753</ele>
        <time>2022-06-22T20:00:59Z</time>
      </trkpt>
      <trkpt lat="45.13528" lon="5.89961">
        <ele>1753</ele>
        <time>2022-06-22T20:01:11Z</time>
      </trkpt>
      <trkpt lat="45.13535" lon="5.89948">
        <ele>1751</ele>
        <time>2022-06-22T20:01:27Z</time>
      </trkpt>
      <trkpt lat="45.1354" lon="5.89935">
        <ele>1750</ele>
        <time>2022-06-22T20:01:41Z</time>
      </trkpt>
      <trkpt lat="45.13543" lon="5.89935">
        <ele>1749</ele>
        <time>2022-06-22T20:01:45Z</time>
      </trkpt>
      <trkpt lat="45.13544" lon="5.89931">
        <ele>1749</ele>
        <time>2022-06-22T20:01:49Z</time>
      </trkpt>
      <trkpt lat="45.13548" lon="5.89932">
        <ele>1748</ele>
        <time>2022-06-22T20:01:54Z</time>
      </trkpt>
      <trkpt lat="45.1355" lon="5.89922">
        <ele>1748</ele>
        <time>2022-06-22T20:02:04Z</time>
      </trkpt>
      <trkpt lat="45.13558" lon="5.89921">
        <ele>1746</ele>
        <time>2022-06-22T20:02:15Z</time>
      </trkpt>
      <trkpt lat="45.13559" lon="5.89918">
        <ele>1746</ele>
        <time>2022-06-22T20:02:18Z</time>
      </trkpt>
      <trkpt lat="45.13553" lon="5.89898">
        <ele>1749</ele>
        <time>2022-06-22T20:02:38Z</time>
      </trkpt>
      <trkpt lat="45.13548" lon="5.89881">
        <ele>1752</ele>
        <time>2022-06-22T20:02:55Z</time>
      </trkpt>
      <trkpt lat="45.13544" lon="5.89878">
        <ele>1753</ele>
        <time>2022-06-22T20:03:02Z</time>
      </trkpt>
      <trkpt lat="45.1354" lon="5.89867">
        <ele>1756</ele>
        <time>2022-06-22T20:03:13Z</time>
      </trkpt>
      <trkpt lat="45.13537" lon="5.89865">
        <ele>1757</ele>
        <time>2022-06-22T20:03:18Z</time>
      </trkpt>
      <trkpt lat="45.13536" lon="5.89857">
        <ele>1759</ele>
        <time>2022-06-22T20:03:25Z</time>
      </trkpt>
      <trkpt lat="45.1353" lon="5.89846">
        <ele>1762</ele>
        <time>2022-06-22T20:03:38Z</time>
      </trkpt>
      <trkpt lat="45.13525" lon="5.89832">
        <ele>1766</ele>
        <time>2022-06-22T20:03:53Z</time>
      </trkpt>
      <trkpt lat="45.13521" lon="5.89826">
        <ele>1767</ele>
        <time>2022-06-22T20:04:01Z</time>
      </trkpt>
      <trkpt lat="45.13521" lon="5.89821">
        <ele>1768</ele>
        <time>2022-06-22T20:04:06Z</time>
      </trkpt>
      <trkpt lat="45.13517" lon="5.89814">
        <ele>1769</ele>
        <time>2022-06-22T20:04:14Z</time>
      </trkpt>
      <trkpt lat="45.13511" lon="5.89814">
        <ele>1772</ele>
        <time>2022-06-22T20:04:22Z</time>
      </trkpt>
      <trkpt lat="45.13508" lon="5.89812">
        <ele>1773</ele>
        <time>2022-06-22T20:04:26Z</time>
      </trkpt>
      <trkpt lat="45.13508" lon="5.89808">
        <ele>1773</ele>
        <time>2022-06-22T20:04:30Z</time>
      </trkpt>
      <trkpt lat="45.13498" lon="5.89784">
        <ele>1779</ele>
        <time>2022-06-22T20:04:56Z</time>
      </trkpt>
      <trkpt lat="45.13497" lon="5.89768">
        <ele>1780</ele>
        <time>2022-06-22T20:05:12Z</time>
      </trkpt>
      <trkpt lat="45.13489" lon="5.89748">
        <ele>1784</ele>
        <time>2022-06-22T20:05:33Z</time>
      </trkpt>
      <trkpt lat="45.1348" lon="5.89737">
        <ele>1785</ele>
        <time>2022-06-22T20:05:49Z</time>
      </trkpt>
      <trkpt lat="45.13472" lon="5.8971">
        <ele>1786</ele>
        <time>2022-06-22T20:06:17Z</time>
      </trkpt>
      <trkpt lat="45.13465" lon="5.897">
        <ele>1787</ele>
        <time>2022-06-22T20:06:30Z</time>
      </trkpt>
      <trkpt lat="45.13454" lon="5.89692">
        <ele>1791</ele>
        <time>2022-06-22T20:06:46Z</time>
      </trkpt>
      <trkpt lat="45.13446" lon="5.89683">
        <ele>1793</ele>
        <time>2022-06-22T20:07:00Z</time>
      </trkpt>
      <trkpt lat="45.13439" lon="5.89668">
        <ele>1795</ele>
        <time>2022-06-22T20:07:17Z</time>
      </trkpt>
      <trkpt lat="45.13436" lon="5.8965">
        <ele>1792</ele>
        <time>2022-06-22T20:07:34Z</time>
      </trkpt>
      <trkpt lat="45.13438" lon="5.89639">
        <ele>1788</ele>
        <time>2022-06-22T20:07:45Z</time>
      </trkpt>
      <trkpt lat="45.13435" lon="5.89625">
        <ele>1786</ele>
        <time>2022-06-22T20:07:59Z</time>
      </trkpt>
      <trkpt lat="45.13429" lon="5.89617">
        <ele>1785</ele>
        <time>2022-06-22T20:08:10Z</time>
      </trkpt>
      <trkpt lat="45.13427" lon="5.89606">
        <ele>1782</ele>
        <time>2022-06-22T20:08:21Z</time>
      </trkpt>
      <trkpt lat="45.13422" lon="5.89601">
        <ele>1782</ele>
        <time>2022-06-22T20:08:29Z</time>
      </trkpt>
      <trkpt lat="45.13419" lon="5.89593">
        <ele>1780</ele>
        <time>2022-06-22T20:08:37Z</time>
      </trkpt>
      <trkpt lat="45.13384" lon="5.89555">
        <ele>1777</ele>
        <time>2022-06-22T20:09:36Z</time>
      </trkpt>
      <trkpt lat="45.13375" lon="5.8954">
        <ele>1774</ele>
        <time>2022-06-22T20:09:55Z</time>
      </trkpt>
      <trkpt lat="45.1337" lon="5.89526">
        <ele>1771</ele>
        <time>2022-06-22T20:10:09Z</time>
      </trkpt>
      <trkpt lat="45.13352" lon="5.89513">
        <ele>1770</ele>
        <time>2022-06-22T20:10:36Z</time>
      </trkpt>
      <trkpt lat="45.13345" lon="5.89503">
        <ele>1768</ele>
        <time>2022-06-22T20:10:50Z</time>
      </trkpt>
      <trkpt lat="45.13324" lon="5.89463">
        <ele>1763</ele>
        <time>2022-06-22T20:11:37Z</time>
      </trkpt>
      <trkpt lat="45.13318" lon="5.8944">
        <ele>1759</ele>
        <time>2022-06-22T20:12:00Z</time>
      </trkpt>
      <trkpt lat="45.13308" lon="5.89418">
        <ele>1758</ele>
        <time>2022-06-22T20:12:24Z</time>
      </trkpt>
      <trkpt lat="45.1331" lon="5.89416">
        <ele>1756</ele>
        <time>2022-06-22T20:12:28Z</time>
      </trkpt>
      <trkpt lat="45.13299" lon="5.89398">
        <ele>1755</ele>
        <time>2022-06-22T20:12:50Z</time>
      </trkpt>
      <trkpt lat="45.13277" lon="5.89367">
        <ele>1754</ele>
        <time>2022-06-22T20:13:31Z</time>
      </trkpt>
      <trkpt lat="45.13267" lon="5.89359">
        <ele>1755</ele>
        <time>2022-06-22T20:13:47Z</time>
      </trkpt>
      <trkpt lat="45.13256" lon="5.89339">
        <ele>1753</ele>
        <time>2022-06-22T20:14:11Z</time>
      </trkpt>
      <trkpt lat="45.13251" lon="5.89337">
        <ele>1755</ele>
        <time>2022-06-22T20:14:17Z</time>
      </trkpt>
      <trkpt lat="45.13242" lon="5.8932">
        <ele>1755</ele>
        <time>2022-06-22T20:14:38Z</time>
      </trkpt>
      <trkpt lat="45.13221" lon="5.89296">
        <ele>1760</ele>
        <time>2022-06-22T20:15:14Z</time>
      </trkpt>
      <trkpt lat="45.13215" lon="5.89284">
        <ele>1760</ele>
        <time>2022-06-22T20:15:27Z</time>
      </trkpt>
      <trkpt lat="45.1319" lon="5.89261">
        <ele>1768</ele>
        <time>2022-06-22T20:16:07Z</time>
      </trkpt>
      <trkpt lat="45.13172" lon="5.89229">
        <ele>1767</ele>
        <time>2022-06-22T20:16:46Z</time>
      </trkpt>
      <trkpt lat="45.13168" lon="5.89216">
        <ele>1765</ele>
        <time>2022-06-22T20:16:59Z</time>
      </trkpt>
      <trkpt lat="45.13157" lon="5.89189">
        <ele>1760</ele>
        <time>2022-06-22T20:17:28Z</time>
      </trkpt>
      <trkpt lat="45.13122" lon="5.89138">
        <ele>1759</ele>
        <time>2022-06-22T20:18:35Z</time>
      </trkpt>
      <trkpt lat="45.13106" lon="5.8911">
        <ele>1758</ele>
        <time>2022-06-22T20:19:09Z</time>
      </trkpt>
      <trkpt lat="45.13094" lon="5.89097">
        <ele>1760</ele>
        <time>2022-06-22T20:19:29Z</time>
      </trkpt>
      <trkpt lat="45.13086" lon="5.89084">
        <ele>1759</ele>
        <time>2022-06-22T20:19:46Z</time>
      </trkpt>
      <trkpt lat="45.13061" lon="5.89057">
        <ele>1756</ele>
        <time>2022-06-22T20:20:28Z</time>
      </trkpt>
      <trkpt lat="45.13051" lon="5.89053">
        <ele>1756</ele>
        <time>2022-06-22T20:20:41Z</time>
      </trkpt>
      <trkpt lat="45.13033" lon="5.89042">
        <ele>1756</ele>
        <time>2022-06-22T20:21:08Z</time>
      </trkpt>
      <trkpt lat="45.13018" lon="5.89036">
        <ele>1757</ele>
        <time>2022-06-22T20:21:28Z</time>
      </trkpt>
      <trkpt lat="45.13001" lon="5.89024">
        <ele>1757</ele>
        <time>2022-06-22T20:21:54Z</time>
      </trkpt>
      <trkpt lat="45.12988" lon="5.89002">
        <ele>1757</ele>
        <time>2022-06-22T20:22:21Z</time>
      </trkpt>
      <trkpt lat="45.12956" lon="5.88979">
        <ele>1766</ele>
        <time>2022-06-22T20:23:09Z</time>
      </trkpt>
      <trkpt lat="45.12947" lon="5.88949">
        <ele>1767</ele>
        <time>2022-06-22T20:23:39Z</time>
      </trkpt>
      <trkpt lat="45.12946" lon="5.8892">
        <ele>1767</ele>
        <time>2022-06-22T20:24:07Z</time>
      </trkpt>
      <trkpt lat="45.12949" lon="5.88896">
        <ele>1768</ele>
        <time>2022-06-22T20:24:30Z</time>
      </trkpt>
      <trkpt lat="45.12953" lon="5.88885">
        <ele>1769</ele>
        <time>2022-06-22T20:24:41Z</time>
      </trkpt>
      <trkpt lat="45.12961" lon="5.88867">
        <ele>1768</ele>
        <time>2022-06-22T20:25:01Z</time>
      </trkpt>
      <trkpt lat="45.12962" lon="5.88864">
        <ele>1768</ele>
        <time>2022-06-22T20:25:04Z</time>
      </trkpt>
      <trkpt lat="45.12958" lon="5.88852">
        <ele>1771</ele>
        <time>2022-06-22T20:25:17Z</time>
      </trkpt>
      <trkpt lat="45.12839" lon="5.88876">
        <ele>1816</ele>
        <time>2022-06-22T20:27:57Z</time>
      </trkpt>
      <trkpt lat="45.12807" lon="5.88874">
        <ele>1822</ele>
        <time>2022-06-22T20:28:40Z</time>
      </trkpt>
      <trkpt lat="45.12768" lon="5.88866">
        <ele>1826</ele>
        <time>2022-06-22T20:29:33Z</time>
      </trkpt>
      <trkpt lat="45.12766" lon="5.88873">
        <ele>1826</ele>
        <time>2022-06-22T20:29:40Z</time>
      </trkpt>
      <trkpt lat="45.12741" lon="5.88891">
        <ele>1830</ele>
        <time>2022-06-22T20:30:17Z</time>
      </trkpt>
      <trkpt lat="45.12737" lon="5.88901">
        <ele>1831</ele>
        <time>2022-06-22T20:30:28Z</time>
      </trkpt>
      <trkpt lat="45.12735" lon="5.88921">
        <ele>1833</ele>
        <time>2022-06-22T20:30:47Z</time>
      </trkpt>
      <trkpt lat="45.12724" lon="5.88931">
        <ele>1836</ele>
        <time>2022-06-22T20:31:04Z</time>
      </trkpt>
      <trkpt lat="45.12716" lon="5.88941">
        <ele>1839</ele>
        <time>2022-06-22T20:31:19Z</time>
      </trkpt>
      <trkpt lat="45.12706" lon="5.88964">
        <ele>1845</ele>
        <time>2022-06-22T20:31:44Z</time>
      </trkpt>
      <trkpt lat="45.12706" lon="5.88965">
        <ele>1845</ele>
        <time>2022-06-22T20:31:45Z</time>
      </trkpt>
      <trkpt lat="45.12706" lon="5.88964">
        <ele>1845</ele>
        <time>2022-06-22T20:31:46Z</time>
      </trkpt>
      <trkpt lat="45.12693" lon="5.88969">
        <ele>1848</ele>
        <time>2022-06-22T20:32:04Z</time>
      </trkpt>
      <trkpt lat="45.12668" lon="5.88953">
        <ele>1848</ele>
        <time>2022-06-22T20:32:41Z</time>
      </trkpt>
      <trkpt lat="45.12639" lon="5.88943">
        <ele>1852</ele>
        <time>2022-06-22T20:33:20Z</time>
      </trkpt>
      <trkpt lat="45.12621" lon="5.88939">
        <ele>1855</ele>
        <time>2022-06-22T20:33:45Z</time>
      </trkpt>
      <trkpt lat="45.12613" lon="5.88931">
        <ele>1855</ele>
        <time>2022-06-22T20:33:58Z</time>
      </trkpt>
      <trkpt lat="45.12607" lon="5.8892">
        <ele>1854</ele>
        <time>2022-06-22T20:34:11Z</time>
      </trkpt>
      <trkpt lat="45.12605" lon="5.88894">
        <ele>1848</ele>
        <time>2022-06-22T20:34:36Z</time>
      </trkpt>
      <trkpt lat="45.12602" lon="5.88881">
        <ele>1845</ele>
        <time>2022-06-22T20:34:48Z</time>
      </trkpt>
      <trkpt lat="45.12579" lon="5.88848">
        <ele>1839</ele>
        <time>2022-06-22T20:35:32Z</time>
      </trkpt>
      <trkpt lat="45.12555" lon="5.88821">
        <ele>1833</ele>
        <time>2022-06-22T20:36:13Z</time>
      </trkpt>
      <trkpt lat="45.12533" lon="5.88805">
        <ele>1831</ele>
        <time>2022-06-22T20:36:46Z</time>
      </trkpt>
      <trkpt lat="45.12501" lon="5.88787">
        <ele>1831</ele>
        <time>2022-06-22T20:37:32Z</time>
      </trkpt>
      <trkpt lat="45.12472" lon="5.88767">
        <ele>1825</ele>
        <time>2022-06-22T20:38:15Z</time>
      </trkpt>
      <trkpt lat="45.12427" lon="5.88728">
        <ele>1816</ele>
        <time>2022-06-22T20:39:25Z</time>
      </trkpt>
      <trkpt lat="45.12414" lon="5.88703">
        <ele>1813</ele>
        <time>2022-06-22T20:39:55Z</time>
      </trkpt>
      <trkpt lat="45.12413" lon="5.88683">
        <ele>1811</ele>
        <time>2022-06-22T20:40:13Z</time>
      </trkpt>
      <trkpt lat="45.12426" lon="5.88586">
        <ele>1797</ele>
        <time>2022-06-22T20:41:46Z</time>
      </trkpt>
      <trkpt lat="45.12402" lon="5.88561">
        <ele>1795</ele>
        <time>2022-06-22T20:42:26Z</time>
      </trkpt>
      <trkpt lat="45.12389" lon="5.88549">
        <ele>1793</ele>
        <time>2022-06-22T20:42:47Z</time>
      </trkpt>
      <trkpt lat="45.1238" lon="5.88545">
        <ele>1793</ele>
        <time>2022-06-22T20:42:59Z</time>
      </trkpt>
      <trkpt lat="45.12369" lon="5.88548">
        <ele>1795</ele>
        <time>2022-06-22T20:43:14Z</time>
      </trkpt>
      <trkpt lat="45.12356" lon="5.88557">
        <ele>1797</ele>
        <time>2022-06-22T20:43:34Z</time>
      </trkpt>
      <trkpt lat="45.12344" lon="5.88557">
        <ele>1798</ele>
        <time>2022-06-22T20:43:50Z</time>
      </trkpt>
      <trkpt lat="45.12312" lon="5.88554">
        <ele>1802</ele>
        <time>2022-06-22T20:44:33Z</time>
      </trkpt>
      <trkpt lat="45.12302" lon="5.88548">
        <ele>1802</ele>
        <time>2022-06-22T20:44:47Z</time>
      </trkpt>
      <trkpt lat="45.12283" lon="5.88532">
        <ele>1804</ele>
        <time>2022-06-22T20:45:17Z</time>
      </trkpt>
      <trkpt lat="45.12271" lon="5.88518">
        <ele>1804</ele>
        <time>2022-06-22T20:45:37Z</time>
      </trkpt>
      <trkpt lat="45.12254" lon="5.88485">
        <ele>1805</ele>
        <time>2022-06-22T20:46:16Z</time>
      </trkpt>
      <trkpt lat="45.12243" lon="5.88467">
        <ele>1806</ele>
        <time>2022-06-22T20:46:38Z</time>
      </trkpt>
      <trkpt lat="45.12223" lon="5.88445">
        <ele>1807</ele>
        <time>2022-06-22T20:47:12Z</time>
      </trkpt>
      <trkpt lat="45.12215" lon="5.88427">
        <ele>1807</ele>
        <time>2022-06-22T20:47:32Z</time>
      </trkpt>
      <trkpt lat="45.12204" lon="5.88393">
        <ele>1805</ele>
        <time>2022-06-22T20:48:07Z</time>
      </trkpt>
      <trkpt lat="45.12204" lon="5.88377">
        <ele>1803</ele>
        <time>2022-06-22T20:48:22Z</time>
      </trkpt>
      <trkpt lat="45.12206" lon="5.88365">
        <ele>1802</ele>
        <time>2022-06-22T20:48:34Z</time>
      </trkpt>
      <trkpt lat="45.12219" lon="5.88323">
        <ele>1796</ele>
        <time>2022-06-22T20:49:17Z</time>
      </trkpt>
      <trkpt lat="45.12219" lon="5.88307">
        <ele>1794</ele>
        <time>2022-06-22T20:49:32Z</time>
      </trkpt>
      <trkpt lat="45.12201" lon="5.88265">
        <ele>1792</ele>
        <time>2022-06-22T20:50:18Z</time>
      </trkpt>
      <trkpt lat="45.12168" lon="5.88226">
        <ele>1794</ele>
        <time>2022-06-22T20:51:16Z</time>
      </trkpt>
      <trkpt lat="45.1215" lon="5.88216">
        <ele>1791</ele>
        <time>2022-06-22T20:51:42Z</time>
      </trkpt>
      <trkpt lat="45.12134" lon="5.88187">
        <ele>1787</ele>
        <time>2022-06-22T20:52:16Z</time>
      </trkpt>
      <trkpt lat="45.12115" lon="5.88171">
        <ele>1785</ele>
        <time>2022-06-22T20:52:46Z</time>
      </trkpt>
      <trkpt lat="45.12106" lon="5.88167">
        <ele>1784</ele>
        <time>2022-06-22T20:52:58Z</time>
      </trkpt>
      <trkpt lat="45.12097" lon="5.88173">
        <ele>1784</ele>
        <time>2022-06-22T20:53:12Z</time>
      </trkpt>
      <trkpt lat="45.12083" lon="5.88172">
        <ele>1783</ele>
        <time>2022-06-22T20:53:30Z</time>
      </trkpt>
      <trkpt lat="45.12065" lon="5.88162">
        <ele>1784</ele>
        <time>2022-06-22T20:53:56Z</time>
      </trkpt>
      <trkpt lat="45.1204" lon="5.88168">
        <ele>1786</ele>
        <time>2022-06-22T20:54:30Z</time>
      </trkpt>
      <trkpt lat="45.12012" lon="5.88164">
        <ele>1788</ele>
        <time>2022-06-22T20:55:07Z</time>
      </trkpt>
      <trkpt lat="45.11938" lon="5.88114">
        <ele>1793</ele>
        <time>2022-06-22T20:56:57Z</time>
      </trkpt>
      <trkpt lat="45.11881" lon="5.88067">
        <ele>1792</ele>
        <time>2022-06-22T20:58:25Z</time>
      </trkpt>
      <trkpt lat="45.11863" lon="5.88069">
        <ele>1794</ele>
        <time>2022-06-22T20:58:49Z</time>
      </trkpt>
      <trkpt lat="45.11838" lon="5.88064">
        <ele>1796</ele>
        <time>2022-06-22T20:59:23Z</time>
      </trkpt>
      <trkpt lat="45.11811" lon="5.88064">
        <ele>1800</ele>
        <time>2022-06-22T20:59:59Z</time>
      </trkpt>
      <trkpt lat="45.11793" lon="5.88055">
        <ele>1801</ele>
        <time>2022-06-22T21:00:24Z</time>
      </trkpt>
      <trkpt lat="45.11786" lon="5.88051">
        <ele>1801</ele>
        <time>2022-06-22T21:00:34Z</time>
      </trkpt>
      <trkpt lat="45.11769" lon="5.88035">
        <ele>1801</ele>
        <time>2022-06-22T21:01:01Z</time>
      </trkpt>
      <trkpt lat="45.11756" lon="5.88019">
        <ele>1800</ele>
        <time>2022-06-22T21:01:24Z</time>
      </trkpt>
      <trkpt lat="45.11737" lon="5.87987">
        <ele>1796</ele>
        <time>2022-06-22T21:02:04Z</time>
      </trkpt>
      <trkpt lat="45.11727" lon="5.87974">
        <ele>1795</ele>
        <time>2022-06-22T21:02:22Z</time>
      </trkpt>
      <trkpt lat="45.11652" lon="5.87957">
        <ele>1802</ele>
        <time>2022-06-22T21:04:03Z</time>
      </trkpt>
      <trkpt lat="45.11574" lon="5.87944">
        <ele>1803</ele>
        <time>2022-06-22T21:05:48Z</time>
      </trkpt>
      <trkpt lat="45.11555" lon="5.87944">
        <ele>1804</ele>
        <time>2022-06-22T21:06:13Z</time>
      </trkpt>
      <trkpt lat="45.11515" lon="5.8794">
        <ele>1806</ele>
        <time>2022-06-22T21:07:07Z</time>
      </trkpt>
      <trkpt lat="45.11499" lon="5.87936">
        <ele>1806</ele>
        <time>2022-06-22T21:07:29Z</time>
      </trkpt>
      <trkpt lat="45.1142" lon="5.87949">
        <ele>1805</ele>
        <time>2022-06-22T21:09:15Z</time>
      </trkpt>
      <trkpt lat="45.11419" lon="5.87946">
        <ele>1804</ele>
        <time>2022-06-22T21:09:18Z</time>
      </trkpt>
      <trkpt lat="45.11407" lon="5.87949">
        <ele>1804</ele>
        <time>2022-06-22T21:09:34Z</time>
      </trkpt>
      <trkpt lat="45.11391" lon="5.87944">
        <ele>1802</ele>
        <time>2022-06-22T21:09:56Z</time>
      </trkpt>
      <trkpt lat="45.11365" lon="5.87936">
        <ele>1799</ele>
        <time>2022-06-22T21:10:31Z</time>
      </trkpt>
      <trkpt lat="45.11357" lon="5.87936">
        <ele>1799</ele>
        <time>2022-06-22T21:10:42Z</time>
      </trkpt>
      <trkpt lat="45.11346" lon="5.87931">
        <ele>1797</ele>
        <time>2022-06-22T21:10:58Z</time>
      </trkpt>
      <trkpt lat="45.11327" lon="5.87926">
        <ele>1795</ele>
        <time>2022-06-22T21:11:23Z</time>
      </trkpt>
      <trkpt lat="45.11299" lon="5.87911">
        <ele>1792</ele>
        <time>2022-06-22T21:12:03Z</time>
      </trkpt>
      <trkpt lat="45.11258" lon="5.87904">
        <ele>1788</ele>
        <time>2022-06-22T21:12:58Z</time>
      </trkpt>
      <trkpt lat="45.1125" lon="5.87905">
        <ele>1788</ele>
        <time>2022-06-22T21:13:09Z</time>
      </trkpt>
      <trkpt lat="45.11225" lon="5.87907">
        <ele>1786</ele>
        <time>2022-06-22T21:13:43Z</time>
      </trkpt>
      <trkpt lat="45.11225" lon="5.87871">
        <ele>1783</ele>
        <time>2022-06-22T21:14:16Z</time>
      </trkpt>
      <trkpt lat="45.11225" lon="5.87863">
        <ele>1783</ele>
        <time>2022-06-22T21:14:24Z</time>
      </trkpt>
      <trkpt lat="45.11185" lon="5.87879">
        <ele>1781</ele>
        <time>2022-06-22T21:15:19Z</time>
      </trkpt>
      <trkpt lat="45.11171" lon="5.87882">
        <ele>1780</ele>
        <time>2022-06-22T21:15:38Z</time>
      </trkpt>
      <trkpt lat="45.11163" lon="5.87878">
        <ele>1780</ele>
        <time>2022-06-22T21:15:50Z</time>
      </trkpt>
      <trkpt lat="45.11156" lon="5.87873">
        <ele>1779</ele>
        <time>2022-06-22T21:16:00Z</time>
      </trkpt>
      <trkpt lat="45.11152" lon="5.87862">
        <ele>1778</ele>
        <time>2022-06-22T21:16:12Z</time>
      </trkpt>
      <trkpt lat="45.11154" lon="5.87834">
        <ele>1775</ele>
        <time>2022-06-22T21:16:38Z</time>
      </trkpt>
      <trkpt lat="45.11162" lon="5.87806">
        <ele>1773</ele>
        <time>2022-06-22T21:17:07Z</time>
      </trkpt>
      <trkpt lat="45.11179" lon="5.87786">
        <ele>1772</ele>
        <time>2022-06-22T21:17:36Z</time>
      </trkpt>
      <trkpt lat="45.11174" lon="5.87776">
        <ele>1771</ele>
        <time>2022-06-22T21:17:48Z</time>
      </trkpt>
      <trkpt lat="45.11167" lon="5.87772">
        <ele>1770</ele>
        <time>2022-06-22T21:17:58Z</time>
      </trkpt>
      <trkpt lat="45.11165" lon="5.87769">
        <ele>1770</ele>
        <time>2022-06-22T21:18:02Z</time>
      </trkpt>
      <trkpt lat="45.11143" lon="5.87757">
        <ele>1767</ele>
        <time>2022-06-22T21:18:33Z</time>
      </trkpt>
      <trkpt lat="45.11131" lon="5.87746">
        <ele>1764</ele>
        <time>2022-06-22T21:18:52Z</time>
      </trkpt>
      <trkpt lat="45.11123" lon="5.87724">
        <ele>1761</ele>
        <time>2022-06-22T21:19:16Z</time>
      </trkpt>
      <trkpt lat="45.11125" lon="5.87715">
        <ele>1760</ele>
        <time>2022-06-22T21:19:24Z</time>
      </trkpt>
      <trkpt lat="45.11122" lon="5.87705">
        <ele>1758</ele>
        <time>2022-06-22T21:19:35Z</time>
      </trkpt>
      <trkpt lat="45.11124" lon="5.87704">
        <ele>1758</ele>
        <time>2022-06-22T21:19:38Z</time>
      </trkpt>
      <trkpt lat="45.11125" lon="5.87694">
        <ele>1757</ele>
        <time>2022-06-22T21:19:47Z</time>
      </trkpt>
      <trkpt lat="45.11129" lon="5.87687">
        <ele>1756</ele>
        <time>2022-06-22T21:19:56Z</time>
      </trkpt>
      <trkpt lat="45.11126" lon="5.87683">
        <ele>1755</ele>
        <time>2022-06-22T21:20:01Z</time>
      </trkpt>
      <trkpt lat="45.11125" lon="5.87676">
        <ele>1754</ele>
        <time>2022-06-22T21:20:08Z</time>
      </trkpt>
      <trkpt lat="45.11122" lon="5.87675">
        <ele>1754</ele>
        <time>2022-06-22T21:20:12Z</time>
      </trkpt>
      <trkpt lat="45.11123" lon="5.87669">
        <ele>1753</ele>
        <time>2022-06-22T21:20:18Z</time>
      </trkpt>
      <trkpt lat="45.11122" lon="5.87665">
        <ele>1753</ele>
        <time>2022-06-22T21:20:22Z</time>
      </trkpt>
      <trkpt lat="45.11123" lon="5.87657">
        <ele>1751</ele>
        <time>2022-06-22T21:20:29Z</time>
      </trkpt>
      <trkpt lat="45.1111" lon="5.87646">
        <ele>1749</ele>
        <time>2022-06-22T21:20:50Z</time>
      </trkpt>
      <trkpt lat="45.11107" lon="5.87638">
        <ele>1748</ele>
        <time>2022-06-22T21:20:58Z</time>
      </trkpt>
      <trkpt lat="45.11108" lon="5.87593">
        <ele>1742</ele>
        <time>2022-06-22T21:21:40Z</time>
      </trkpt>
      <trkpt lat="45.111" lon="5.87592">
        <ele>1742</ele>
        <time>2022-06-22T21:21:51Z</time>
      </trkpt>
      <trkpt lat="45.11064" lon="5.87587">
        <ele>1743</ele>
        <time>2022-06-22T21:22:39Z</time>
      </trkpt>
      <trkpt lat="45.11039" lon="5.87575">
        <ele>1743</ele>
        <time>2022-06-22T21:23:15Z</time>
      </trkpt>
      <trkpt lat="45.11026" lon="5.87572">
        <ele>1743</ele>
        <time>2022-06-22T21:23:32Z</time>
      </trkpt>
      <trkpt lat="45.11017" lon="5.87576">
        <ele>1745</ele>
        <time>2022-06-22T21:23:45Z</time>
      </trkpt>
      <trkpt lat="45.1089" lon="5.87565">
        <ele>1744</ele>
        <time>2022-06-22T21:26:35Z</time>
      </trkpt>
      <trkpt lat="45.10867" lon="5.87563">
        <ele>1744</ele>
        <time>2022-06-22T21:27:05Z</time>
      </trkpt>
      <trkpt lat="45.10853" lon="5.87555">
        <ele>1743</ele>
        <time>2022-06-22T21:27:26Z</time>
      </trkpt>
      <trkpt lat="45.10765" lon="5.87547">
        <ele>1742</ele>
        <time>2022-06-22T21:29:23Z</time>
      </trkpt>
      <trkpt lat="45.10758" lon="5.87542">
        <ele>1742</ele>
        <time>2022-06-22T21:29:34Z</time>
      </trkpt>
      <trkpt lat="45.10754" lon="5.87533">
        <ele>1740</ele>
        <time>2022-06-22T21:29:44Z</time>
      </trkpt>
      <trkpt lat="45.10746" lon="5.87529">
        <ele>1739</ele>
        <time>2022-06-22T21:29:55Z</time>
      </trkpt>
      <trkpt lat="45.10657" lon="5.87539">
        <ele>1737</ele>
        <time>2022-06-22T21:31:54Z</time>
      </trkpt>
      <trkpt lat="45.10531" lon="5.87564">
        <ele>1731</ele>
        <time>2022-06-22T21:34:44Z</time>
      </trkpt>
      <trkpt lat="45.10545" lon="5.87546">
        <ele>1730</ele>
        <time>2022-06-22T21:35:09Z</time>
      </trkpt>
      <trkpt lat="45.10529" lon="5.87503">
        <ele>1727</ele>
        <time>2022-06-22T21:35:55Z</time>
      </trkpt>
      <trkpt lat="45.10521" lon="5.87494">
        <ele>1725</ele>
        <time>2022-06-22T21:36:09Z</time>
      </trkpt>
      <trkpt lat="45.10511" lon="5.87493">
        <ele>1725</ele>
        <time>2022-06-22T21:36:22Z</time>
      </trkpt>
      <trkpt lat="45.10508" lon="5.87498">
        <ele>1726</ele>
        <time>2022-06-22T21:36:28Z</time>
      </trkpt>
      <trkpt lat="45.10507" lon="5.87566">
        <ele>1730</ele>
        <time>2022-06-22T21:37:32Z</time>
      </trkpt>
      <trkpt lat="45.10504" lon="5.87573">
        <ele>1731</ele>
        <time>2022-06-22T21:37:40Z</time>
      </trkpt>
    </trkseg>
  </trk>
</gpx>